﻿<?xml version="1.0" encoding="UTF-8" standalone="no" ?>
<gpx xmlns="http://www.topografix.com/GPX/1/1" creator="CompeGPS" version="1.1" xmlns:xsi="http://www.w3.org/2001/XMLSchema-instance" xsi:schemaLocation="http://www.topografix.com/GPX/1/1 http://www.topografix.com/GPX/1/1/gpx.xsd http://www.garmin.com/xmlschemas/GpxExtensions/v3 http://www.garmin.com/xmlschemas/GpxExtensionsv3.xsd http://www.garmin.com/xmlschemas/TrackPointExtension/v1 http://www.garmin.com/xmlschemas/TrackPointExtensionv1.xsd" xmlns:gpxtpx="http://www.garmin.com/xmlschemas/TrackPointExtension/v1">
  <metadata>
    <link href="http://www.compegps.com">
      <text>CompeGPS TEAM, SL</text>
    </link>
    <time>2013-04-26T06:49:20Z</time>
    <bounds maxlat="42.859458" maxlon="0.678162" minlat="42.846094" minlon="0.620066"/>
  </metadata>
<wpt lat="42.856126" lon="0.620381">
  <ele>940</ele>
  <name>Gouaux-de-Luchon</name>
</wpt>
<wpt lat="42.857400" lon="0.629921">
  <ele>1210</ele>
  <name>Barriere</name>
</wpt>
<wpt lat="42.857060" lon="0.652208">
  <ele>1549</ele>
  <name>Cab. de Salode</name>
</wpt>
<wpt lat="42.852990" lon="0.654005">
  <ele>1606</ele>
  <name>Cab. Courrau Vieil</name>
</wpt>
<wpt lat="42.851378" lon="0.664658">
  <ele>1870</ele>
  <name>Cab. Mouscade</name>
</wpt>
<wpt lat="42.846175" lon="0.675230">
  <ele>2193</ele>
  <name>Pic de Bacanere</name>
</wpt>
  <trk>
    <name>pic de Bacanere</name>
    <trkseg>
      <trkpt lat="42.856126" lon="0.620381">
        <ele>939.5</ele>
        <time>2013-04-25T08:21:45Z</time>
        <name>Gouaux-de-Luchon</name>
      </trkpt>
      <trkpt lat="42.856336" lon="0.620276">
        <ele>938.9</ele>
        <time>2013-04-25T08:21:55Z</time>
      </trkpt>
      <trkpt lat="42.856500" lon="0.620158">
        <ele>937.1</ele>
        <time>2013-04-25T08:22:03Z</time>
      </trkpt>
      <trkpt lat="42.856747" lon="0.620108">
        <ele>936.7</ele>
        <time>2013-04-25T08:22:13Z</time>
      </trkpt>
      <trkpt lat="42.856941" lon="0.620099">
        <ele>935.7</ele>
        <time>2013-04-25T08:22:23Z</time>
      </trkpt>
      <trkpt lat="42.857009" lon="0.620141">
        <ele>937.0</ele>
        <time>2013-04-25T08:22:33Z</time>
      </trkpt>
      <trkpt lat="42.857157" lon="0.620226">
        <ele>938.9</ele>
        <time>2013-04-25T08:22:44Z</time>
      </trkpt>
      <trkpt lat="42.857419" lon="0.620414">
        <ele>949.9</ele>
        <time>2013-04-25T08:22:54Z</time>
      </trkpt>
      <trkpt lat="42.857513" lon="0.620448">
        <ele>952.3</ele>
        <time>2013-04-25T08:23:05Z</time>
      </trkpt>
      <trkpt lat="42.857621" lon="0.620505">
        <ele>953.8</ele>
        <time>2013-04-25T08:23:14Z</time>
      </trkpt>
      <trkpt lat="42.857753" lon="0.620578">
        <ele>956.2</ele>
        <time>2013-04-25T08:23:24Z</time>
      </trkpt>
      <trkpt lat="42.857858" lon="0.620637">
        <ele>958.1</ele>
        <time>2013-04-25T08:23:34Z</time>
      </trkpt>
      <trkpt lat="42.857954" lon="0.620726">
        <ele>960.5</ele>
        <time>2013-04-25T08:23:44Z</time>
      </trkpt>
      <trkpt lat="42.858050" lon="0.620805">
        <ele>961.5</ele>
        <time>2013-04-25T08:23:53Z</time>
      </trkpt>
      <trkpt lat="42.858162" lon="0.620883">
        <ele>962.9</ele>
        <time>2013-04-25T08:24:03Z</time>
      </trkpt>
      <trkpt lat="42.858288" lon="0.620953">
        <ele>965.3</ele>
        <time>2013-04-25T08:24:15Z</time>
      </trkpt>
      <trkpt lat="42.858409" lon="0.620941">
        <ele>967.2</ele>
        <time>2013-04-25T08:24:25Z</time>
      </trkpt>
      <trkpt lat="42.858535" lon="0.620934">
        <ele>969.2</ele>
        <time>2013-04-25T08:24:35Z</time>
      </trkpt>
      <trkpt lat="42.858647" lon="0.620896">
        <ele>971.5</ele>
        <time>2013-04-25T08:24:45Z</time>
      </trkpt>
      <trkpt lat="42.858745" lon="0.620798">
        <ele>973.0</ele>
        <time>2013-04-25T08:24:55Z</time>
      </trkpt>
      <trkpt lat="42.858823" lon="0.620714">
        <ele>974.9</ele>
        <time>2013-04-25T08:25:03Z</time>
      </trkpt>
      <trkpt lat="42.858921" lon="0.620690">
        <ele>977.8</ele>
        <time>2013-04-25T08:25:13Z</time>
      </trkpt>
      <trkpt lat="42.859040" lon="0.620729">
        <ele>980.2</ele>
        <time>2013-04-25T08:25:24Z</time>
      </trkpt>
      <trkpt lat="42.859155" lon="0.620773">
        <ele>983.1</ele>
        <time>2013-04-25T08:25:36Z</time>
      </trkpt>
      <trkpt lat="42.859263" lon="0.620766">
        <ele>985.5</ele>
        <time>2013-04-25T08:25:46Z</time>
      </trkpt>
      <trkpt lat="42.859359" lon="0.620819">
        <ele>987.4</ele>
        <time>2013-04-25T08:25:55Z</time>
      </trkpt>
      <trkpt lat="42.859376" lon="0.620957">
        <ele>988.8</ele>
        <time>2013-04-25T08:26:04Z</time>
      </trkpt>
      <trkpt lat="42.859364" lon="0.621087">
        <ele>990.8</ele>
        <time>2013-04-25T08:26:13Z</time>
      </trkpt>
      <trkpt lat="42.859310" lon="0.621182">
        <ele>994.1</ele>
        <time>2013-04-25T08:26:24Z</time>
      </trkpt>
      <trkpt lat="42.859296" lon="0.621306">
        <ele>998.5</ele>
        <time>2013-04-25T08:26:39Z</time>
      </trkpt>
      <trkpt lat="42.859358" lon="0.621425">
        <ele>1000.9</ele>
        <time>2013-04-25T08:26:52Z</time>
      </trkpt>
      <trkpt lat="42.859423" lon="0.621515">
        <ele>1002.8</ele>
        <time>2013-04-25T08:27:02Z</time>
      </trkpt>
      <trkpt lat="42.859380" lon="0.621640">
        <ele>1005.2</ele>
        <time>2013-04-25T08:27:13Z</time>
      </trkpt>
      <trkpt lat="42.859353" lon="0.621784">
        <ele>1006.2</ele>
        <time>2013-04-25T08:27:23Z</time>
      </trkpt>
      <trkpt lat="42.859337" lon="0.621912">
        <ele>1006.6</ele>
        <time>2013-04-25T08:27:31Z</time>
      </trkpt>
      <trkpt lat="42.859337" lon="0.622054">
        <ele>1009.5</ele>
        <time>2013-04-25T08:27:40Z</time>
      </trkpt>
      <trkpt lat="42.859311" lon="0.622203">
        <ele>1012.9</ele>
        <time>2013-04-25T08:27:50Z</time>
      </trkpt>
      <trkpt lat="42.859272" lon="0.622331">
        <ele>1013.8</ele>
        <time>2013-04-25T08:28:02Z</time>
      </trkpt>
      <trkpt lat="42.859242" lon="0.622471">
        <ele>1016.7</ele>
        <time>2013-04-25T08:28:13Z</time>
      </trkpt>
      <trkpt lat="42.859195" lon="0.622639">
        <ele>1020.1</ele>
        <time>2013-04-25T08:28:25Z</time>
      </trkpt>
      <trkpt lat="42.859133" lon="0.622809">
        <ele>1022.5</ele>
        <time>2013-04-25T08:28:37Z</time>
      </trkpt>
      <trkpt lat="42.859048" lon="0.622765">
        <ele>1023.9</ele>
        <time>2013-04-25T08:28:48Z</time>
      </trkpt>
      <trkpt lat="42.858981" lon="0.622660">
        <ele>1026.8</ele>
        <time>2013-04-25T08:28:58Z</time>
      </trkpt>
      <trkpt lat="42.858965" lon="0.622789">
        <ele>1028.3</ele>
        <time>2013-04-25T08:29:07Z</time>
      </trkpt>
      <trkpt lat="42.858972" lon="0.622934">
        <ele>1031.2</ele>
        <time>2013-04-25T08:29:17Z</time>
      </trkpt>
      <trkpt lat="42.858977" lon="0.623076">
        <ele>1032.6</ele>
        <time>2013-04-25T08:29:26Z</time>
      </trkpt>
      <trkpt lat="42.858991" lon="0.623215">
        <ele>1034.0</ele>
        <time>2013-04-25T08:29:35Z</time>
      </trkpt>
      <trkpt lat="42.858986" lon="0.623409">
        <ele>1036.9</ele>
        <time>2013-04-25T08:29:48Z</time>
      </trkpt>
      <trkpt lat="42.859002" lon="0.623607">
        <ele>1038.8</ele>
        <time>2013-04-25T08:29:59Z</time>
      </trkpt>
      <trkpt lat="42.859008" lon="0.623815">
        <ele>1040.8</ele>
        <time>2013-04-25T08:30:11Z</time>
      </trkpt>
      <trkpt lat="42.859036" lon="0.624049">
        <ele>1044.1</ele>
        <time>2013-04-25T08:30:25Z</time>
      </trkpt>
      <trkpt lat="42.859052" lon="0.624238">
        <ele>1046.5</ele>
        <time>2013-04-25T08:30:36Z</time>
      </trkpt>
      <trkpt lat="42.858967" lon="0.624337">
        <ele>1049.9</ele>
        <time>2013-04-25T08:30:49Z</time>
      </trkpt>
      <trkpt lat="42.858864" lon="0.624268">
        <ele>1051.8</ele>
        <time>2013-04-25T08:31:00Z</time>
      </trkpt>
      <trkpt lat="42.858756" lon="0.624259">
        <ele>1054.7</ele>
        <time>2013-04-25T08:31:14Z</time>
      </trkpt>
      <trkpt lat="42.858784" lon="0.624435">
        <ele>1058.6</ele>
        <time>2013-04-25T08:31:29Z</time>
      </trkpt>
      <trkpt lat="42.858800" lon="0.624626">
        <ele>1061.9</ele>
        <time>2013-04-25T08:31:46Z</time>
      </trkpt>
      <trkpt lat="42.858839" lon="0.624841">
        <ele>1064.8</ele>
        <time>2013-04-25T08:32:03Z</time>
      </trkpt>
      <trkpt lat="42.858857" lon="0.625029">
        <ele>1069.6</ele>
        <time>2013-04-25T08:32:17Z</time>
      </trkpt>
      <trkpt lat="42.858865" lon="0.625191">
        <ele>1072.5</ele>
        <time>2013-04-25T08:32:29Z</time>
      </trkpt>
      <trkpt lat="42.858905" lon="0.625338">
        <ele>1076.8</ele>
        <time>2013-04-25T08:32:43Z</time>
      </trkpt>
      <trkpt lat="42.858933" lon="0.625527">
        <ele>1080.7</ele>
        <time>2013-04-25T08:33:00Z</time>
      </trkpt>
      <trkpt lat="42.858966" lon="0.625678">
        <ele>1084.5</ele>
        <time>2013-04-25T08:33:16Z</time>
      </trkpt>
      <trkpt lat="42.859005" lon="0.625824">
        <ele>1088.3</ele>
        <time>2013-04-25T08:33:34Z</time>
      </trkpt>
      <trkpt lat="42.858991" lon="0.625985">
        <ele>1090.8</ele>
        <time>2013-04-25T08:33:50Z</time>
      </trkpt>
      <trkpt lat="42.858987" lon="0.626216">
        <ele>1095.6</ele>
        <time>2013-04-25T08:34:10Z</time>
      </trkpt>
      <trkpt lat="42.858878" lon="0.626234">
        <ele>1098.9</ele>
        <time>2013-04-25T08:34:25Z</time>
      </trkpt>
      <trkpt lat="42.858805" lon="0.626106">
        <ele>1102.8</ele>
        <time>2013-04-25T08:34:44Z</time>
      </trkpt>
      <trkpt lat="42.858721" lon="0.625979">
        <ele>1106.1</ele>
        <time>2013-04-25T08:34:59Z</time>
      </trkpt>
      <trkpt lat="42.858610" lon="0.625917">
        <ele>1109.5</ele>
        <time>2013-04-25T08:35:12Z</time>
      </trkpt>
      <trkpt lat="42.858520" lon="0.625945">
        <ele>1112.4</ele>
        <time>2013-04-25T08:35:24Z</time>
      </trkpt>
      <trkpt lat="42.858463" lon="0.626111">
        <ele>1113.8</ele>
        <time>2013-04-25T08:35:53Z</time>
      </trkpt>
      <trkpt lat="42.858468" lon="0.626236">
        <ele>1116.2</ele>
        <time>2013-04-25T08:36:06Z</time>
      </trkpt>
      <trkpt lat="42.858495" lon="0.626379">
        <ele>1119.1</ele>
        <time>2013-04-25T08:36:18Z</time>
      </trkpt>
      <trkpt lat="42.858515" lon="0.626499">
        <ele>1121.5</ele>
        <time>2013-04-25T08:36:28Z</time>
      </trkpt>
      <trkpt lat="42.858572" lon="0.626629">
        <ele>1124.9</ele>
        <time>2013-04-25T08:36:41Z</time>
      </trkpt>
      <trkpt lat="42.858595" lon="0.626778">
        <ele>1127.8</ele>
        <time>2013-04-25T08:36:53Z</time>
      </trkpt>
      <trkpt lat="42.858568" lon="0.626907">
        <ele>1129.7</ele>
        <time>2013-04-25T08:37:04Z</time>
      </trkpt>
      <trkpt lat="42.858536" lon="0.627097">
        <ele>1132.6</ele>
        <time>2013-04-25T08:37:16Z</time>
      </trkpt>
      <trkpt lat="42.858433" lon="0.627172">
        <ele>1135.0</ele>
        <time>2013-04-25T08:37:27Z</time>
      </trkpt>
      <trkpt lat="42.858304" lon="0.627213">
        <ele>1137.9</ele>
        <time>2013-04-25T08:37:40Z</time>
      </trkpt>
      <trkpt lat="42.858170" lon="0.627188">
        <ele>1140.7</ele>
        <time>2013-04-25T08:37:53Z</time>
      </trkpt>
      <trkpt lat="42.858053" lon="0.627149">
        <ele>1142.7</ele>
        <time>2013-04-25T08:38:04Z</time>
      </trkpt>
      <trkpt lat="42.857944" lon="0.627169">
        <ele>1146.0</ele>
        <time>2013-04-25T08:38:16Z</time>
      </trkpt>
      <trkpt lat="42.857857" lon="0.627251">
        <ele>1148.4</ele>
        <time>2013-04-25T08:38:27Z</time>
      </trkpt>
      <trkpt lat="42.857877" lon="0.627399">
        <ele>1151.3</ele>
        <time>2013-04-25T08:38:40Z</time>
      </trkpt>
      <trkpt lat="42.857943" lon="0.627519">
        <ele>1153.7</ele>
        <time>2013-04-25T08:38:51Z</time>
      </trkpt>
      <trkpt lat="42.857968" lon="0.627674">
        <ele>1156.6</ele>
        <time>2013-04-25T08:39:03Z</time>
      </trkpt>
      <trkpt lat="42.857931" lon="0.627828">
        <ele>1159.0</ele>
        <time>2013-04-25T08:39:18Z</time>
      </trkpt>
      <trkpt lat="42.857803" lon="0.627921">
        <ele>1162.8</ele>
        <time>2013-04-25T08:39:31Z</time>
      </trkpt>
      <trkpt lat="42.857676" lon="0.627902">
        <ele>1164.8</ele>
        <time>2013-04-25T08:39:43Z</time>
      </trkpt>
      <trkpt lat="42.857587" lon="0.627859">
        <ele>1166.2</ele>
        <time>2013-04-25T08:39:52Z</time>
      </trkpt>
      <trkpt lat="42.857586" lon="0.628020">
        <ele>1169.6</ele>
        <time>2013-04-25T08:40:06Z</time>
      </trkpt>
      <trkpt lat="42.857639" lon="0.628177">
        <ele>1172.0</ele>
        <time>2013-04-25T08:40:17Z</time>
      </trkpt>
      <trkpt lat="42.857664" lon="0.628353">
        <ele>1173.9</ele>
        <time>2013-04-25T08:40:28Z</time>
      </trkpt>
      <trkpt lat="42.857673" lon="0.628499">
        <ele>1175.8</ele>
        <time>2013-04-25T08:40:39Z</time>
      </trkpt>
      <trkpt lat="42.857707" lon="0.628671">
        <ele>1177.8</ele>
        <time>2013-04-25T08:40:51Z</time>
      </trkpt>
      <trkpt lat="42.857600" lon="0.628708">
        <ele>1180.6</ele>
        <time>2013-04-25T08:41:02Z</time>
      </trkpt>
      <trkpt lat="42.857500" lon="0.628652">
        <ele>1183.0</ele>
        <time>2013-04-25T08:41:13Z</time>
      </trkpt>
      <trkpt lat="42.857421" lon="0.628752">
        <ele>1185.4</ele>
        <time>2013-04-25T08:41:29Z</time>
      </trkpt>
      <trkpt lat="42.857425" lon="0.628944">
        <ele>1188.8</ele>
        <time>2013-04-25T08:41:52Z</time>
      </trkpt>
      <trkpt lat="42.857435" lon="0.629098">
        <ele>1191.2</ele>
        <time>2013-04-25T08:42:04Z</time>
      </trkpt>
      <trkpt lat="42.857414" lon="0.629275">
        <ele>1191.2</ele>
        <time>2013-04-25T08:42:16Z</time>
      </trkpt>
      <trkpt lat="42.857444" lon="0.629443">
        <ele>1194.1</ele>
        <time>2013-04-25T08:42:28Z</time>
      </trkpt>
      <trkpt lat="42.857448" lon="0.629586">
        <ele>1197.9</ele>
        <time>2013-04-25T08:42:39Z</time>
      </trkpt>
      <trkpt lat="42.857445" lon="0.629722">
        <ele>1199.9</ele>
        <time>2013-04-25T08:42:50Z</time>
      </trkpt>
      <trkpt lat="42.857400" lon="0.629921">
        <ele>1202.8</ele>
        <time>2013-04-25T08:43:03Z</time>
        <name>Barriere</name>
      </trkpt>
      <trkpt lat="42.857404" lon="0.630027">
        <ele>1205.2</ele>
        <time>2013-04-25T08:43:37Z</time>
      </trkpt>
      <trkpt lat="42.857393" lon="0.630174">
        <ele>1206.6</ele>
        <time>2013-04-25T08:44:45Z</time>
      </trkpt>
      <trkpt lat="42.857368" lon="0.630342">
        <ele>1212.8</ele>
        <time>2013-04-25T08:45:04Z</time>
      </trkpt>
      <trkpt lat="42.857337" lon="0.630561">
        <ele>1213.8</ele>
        <time>2013-04-25T08:45:27Z</time>
      </trkpt>
      <trkpt lat="42.857336" lon="0.630718">
        <ele>1217.7</ele>
        <time>2013-04-25T08:45:43Z</time>
      </trkpt>
      <trkpt lat="42.857251" lon="0.630886">
        <ele>1221.5</ele>
        <time>2013-04-25T08:46:01Z</time>
      </trkpt>
      <trkpt lat="42.857157" lon="0.630955">
        <ele>1224.9</ele>
        <time>2013-04-25T08:46:14Z</time>
      </trkpt>
      <trkpt lat="42.857154" lon="0.631080">
        <ele>1227.7</ele>
        <time>2013-04-25T08:46:26Z</time>
      </trkpt>
      <trkpt lat="42.857163" lon="0.631237">
        <ele>1230.6</ele>
        <time>2013-04-25T08:46:40Z</time>
      </trkpt>
      <trkpt lat="42.857178" lon="0.631380">
        <ele>1234.0</ele>
        <time>2013-04-25T08:46:53Z</time>
      </trkpt>
      <trkpt lat="42.857178" lon="0.631522">
        <ele>1237.3</ele>
        <time>2013-04-25T08:47:06Z</time>
      </trkpt>
      <trkpt lat="42.857120" lon="0.631647">
        <ele>1238.8</ele>
        <time>2013-04-25T08:47:17Z</time>
      </trkpt>
      <trkpt lat="42.857123" lon="0.631776">
        <ele>1241.2</ele>
        <time>2013-04-25T08:47:32Z</time>
      </trkpt>
      <trkpt lat="42.857182" lon="0.631847">
        <ele>1242.6</ele>
        <time>2013-04-25T08:47:43Z</time>
      </trkpt>
      <trkpt lat="42.857141" lon="0.631993">
        <ele>1248.4</ele>
        <time>2013-04-25T08:47:57Z</time>
      </trkpt>
      <trkpt lat="42.857176" lon="0.632117">
        <ele>1248.4</ele>
        <time>2013-04-25T08:48:10Z</time>
      </trkpt>
      <trkpt lat="42.857197" lon="0.632231">
        <ele>1251.3</ele>
        <time>2013-04-25T08:48:23Z</time>
      </trkpt>
      <trkpt lat="42.857188" lon="0.632351">
        <ele>1256.1</ele>
        <time>2013-04-25T08:48:37Z</time>
      </trkpt>
      <trkpt lat="42.857200" lon="0.632486">
        <ele>1258.5</ele>
        <time>2013-04-25T08:48:49Z</time>
      </trkpt>
      <trkpt lat="42.857189" lon="0.632607">
        <ele>1261.4</ele>
        <time>2013-04-25T08:49:02Z</time>
      </trkpt>
      <trkpt lat="42.857202" lon="0.632721">
        <ele>1264.8</ele>
        <time>2013-04-25T08:49:16Z</time>
      </trkpt>
      <trkpt lat="42.857280" lon="0.632800">
        <ele>1267.2</ele>
        <time>2013-04-25T08:49:29Z</time>
      </trkpt>
      <trkpt lat="42.857304" lon="0.632927">
        <ele>1270.0</ele>
        <time>2013-04-25T08:49:41Z</time>
      </trkpt>
      <trkpt lat="42.857328" lon="0.633045">
        <ele>1273.4</ele>
        <time>2013-04-25T08:49:55Z</time>
      </trkpt>
      <trkpt lat="42.857346" lon="0.633180">
        <ele>1275.3</ele>
        <time>2013-04-25T08:50:07Z</time>
      </trkpt>
      <trkpt lat="42.857366" lon="0.633296">
        <ele>1277.7</ele>
        <time>2013-04-25T08:50:17Z</time>
      </trkpt>
      <trkpt lat="42.857387" lon="0.633429">
        <ele>1279.7</ele>
        <time>2013-04-25T08:50:28Z</time>
      </trkpt>
      <trkpt lat="42.857393" lon="0.633556">
        <ele>1282.1</ele>
        <time>2013-04-25T08:50:38Z</time>
      </trkpt>
      <trkpt lat="42.857412" lon="0.633685">
        <ele>1284.5</ele>
        <time>2013-04-25T08:50:49Z</time>
      </trkpt>
      <trkpt lat="42.857435" lon="0.633810">
        <ele>1286.4</ele>
        <time>2013-04-25T08:51:00Z</time>
      </trkpt>
      <trkpt lat="42.857399" lon="0.633935">
        <ele>1289.8</ele>
        <time>2013-04-25T08:51:12Z</time>
      </trkpt>
      <trkpt lat="42.857363" lon="0.634055">
        <ele>1292.2</ele>
        <time>2013-04-25T08:51:24Z</time>
      </trkpt>
      <trkpt lat="42.857324" lon="0.634151">
        <ele>1295.5</ele>
        <time>2013-04-25T08:51:40Z</time>
      </trkpt>
      <trkpt lat="42.857397" lon="0.634209">
        <ele>1296.5</ele>
        <time>2013-04-25T08:52:11Z</time>
      </trkpt>
      <trkpt lat="42.857379" lon="0.634324">
        <ele>1297.9</ele>
        <time>2013-04-25T08:52:39Z</time>
      </trkpt>
      <trkpt lat="42.857393" lon="0.634456">
        <ele>1300.3</ele>
        <time>2013-04-25T08:52:52Z</time>
      </trkpt>
      <trkpt lat="42.857310" lon="0.634568">
        <ele>1303.7</ele>
        <time>2013-04-25T08:53:04Z</time>
      </trkpt>
      <trkpt lat="42.857271" lon="0.634691">
        <ele>1306.6</ele>
        <time>2013-04-25T08:53:16Z</time>
      </trkpt>
      <trkpt lat="42.857234" lon="0.634815">
        <ele>1310.9</ele>
        <time>2013-04-25T08:53:29Z</time>
      </trkpt>
      <trkpt lat="42.857186" lon="0.634940">
        <ele>1312.8</ele>
        <time>2013-04-25T08:53:41Z</time>
      </trkpt>
      <trkpt lat="42.857151" lon="0.635062">
        <ele>1315.7</ele>
        <time>2013-04-25T08:53:53Z</time>
      </trkpt>
      <trkpt lat="42.857156" lon="0.635200">
        <ele>1317.6</ele>
        <time>2013-04-25T08:54:04Z</time>
      </trkpt>
      <trkpt lat="42.857134" lon="0.635315">
        <ele>1320.5</ele>
        <time>2013-04-25T08:54:15Z</time>
      </trkpt>
      <trkpt lat="42.857072" lon="0.635436">
        <ele>1322.9</ele>
        <time>2013-04-25T08:54:29Z</time>
      </trkpt>
      <trkpt lat="42.857011" lon="0.635557">
        <ele>1326.3</ele>
        <time>2013-04-25T08:54:41Z</time>
      </trkpt>
      <trkpt lat="42.856966" lon="0.635665">
        <ele>1329.6</ele>
        <time>2013-04-25T08:54:53Z</time>
      </trkpt>
      <trkpt lat="42.856886" lon="0.635775">
        <ele>1332.5</ele>
        <time>2013-04-25T08:55:06Z</time>
      </trkpt>
      <trkpt lat="42.856835" lon="0.635884">
        <ele>1334.4</ele>
        <time>2013-04-25T08:55:16Z</time>
      </trkpt>
      <trkpt lat="42.856770" lon="0.635997">
        <ele>1336.8</ele>
        <time>2013-04-25T08:55:26Z</time>
      </trkpt>
      <trkpt lat="42.856710" lon="0.636110">
        <ele>1338.8</ele>
        <time>2013-04-25T08:55:36Z</time>
      </trkpt>
      <trkpt lat="42.856650" lon="0.636226">
        <ele>1340.2</ele>
        <time>2013-04-25T08:55:46Z</time>
      </trkpt>
      <trkpt lat="42.856590" lon="0.636331">
        <ele>1342.1</ele>
        <time>2013-04-25T08:55:56Z</time>
      </trkpt>
      <trkpt lat="42.856525" lon="0.636446">
        <ele>1344.5</ele>
        <time>2013-04-25T08:56:06Z</time>
      </trkpt>
      <trkpt lat="42.856470" lon="0.636555">
        <ele>1346.5</ele>
        <time>2013-04-25T08:56:15Z</time>
      </trkpt>
      <trkpt lat="42.856433" lon="0.636672">
        <ele>1347.9</ele>
        <time>2013-04-25T08:56:24Z</time>
      </trkpt>
      <trkpt lat="42.856392" lon="0.636776">
        <ele>1349.8</ele>
        <time>2013-04-25T08:56:33Z</time>
      </trkpt>
      <trkpt lat="42.856355" lon="0.636891">
        <ele>1351.3</ele>
        <time>2013-04-25T08:56:43Z</time>
      </trkpt>
      <trkpt lat="42.856320" lon="0.637007">
        <ele>1353.7</ele>
        <time>2013-04-25T08:56:53Z</time>
      </trkpt>
      <trkpt lat="42.856283" lon="0.637122">
        <ele>1356.1</ele>
        <time>2013-04-25T08:57:03Z</time>
      </trkpt>
      <trkpt lat="42.856244" lon="0.637240">
        <ele>1358.5</ele>
        <time>2013-04-25T08:57:14Z</time>
      </trkpt>
      <trkpt lat="42.856208" lon="0.637366">
        <ele>1362.8</ele>
        <time>2013-04-25T08:57:25Z</time>
      </trkpt>
      <trkpt lat="42.856172" lon="0.637485">
        <ele>1361.4</ele>
        <time>2013-04-25T08:57:36Z</time>
      </trkpt>
      <trkpt lat="42.856151" lon="0.637605">
        <ele>1365.7</ele>
        <time>2013-04-25T08:57:48Z</time>
      </trkpt>
      <trkpt lat="42.856171" lon="0.637743">
        <ele>1369.1</ele>
        <time>2013-04-25T08:58:00Z</time>
      </trkpt>
      <trkpt lat="42.856193" lon="0.637872">
        <ele>1371.9</ele>
        <time>2013-04-25T08:58:12Z</time>
      </trkpt>
      <trkpt lat="42.856206" lon="0.638000">
        <ele>1374.8</ele>
        <time>2013-04-25T08:58:25Z</time>
      </trkpt>
      <trkpt lat="42.856203" lon="0.638124">
        <ele>1376.8</ele>
        <time>2013-04-25T08:58:37Z</time>
      </trkpt>
      <trkpt lat="42.856238" lon="0.638233">
        <ele>1379.2</ele>
        <time>2013-04-25T08:58:49Z</time>
      </trkpt>
      <trkpt lat="42.856249" lon="0.638360">
        <ele>1382.0</ele>
        <time>2013-04-25T08:59:02Z</time>
      </trkpt>
      <trkpt lat="42.856237" lon="0.638485">
        <ele>1385.4</ele>
        <time>2013-04-25T08:59:16Z</time>
      </trkpt>
      <trkpt lat="42.856212" lon="0.638608">
        <ele>1388.3</ele>
        <time>2013-04-25T08:59:29Z</time>
      </trkpt>
      <trkpt lat="42.856206" lon="0.638731">
        <ele>1391.7</ele>
        <time>2013-04-25T08:59:42Z</time>
      </trkpt>
      <trkpt lat="42.856220" lon="0.638853">
        <ele>1394.1</ele>
        <time>2013-04-25T08:59:54Z</time>
      </trkpt>
      <trkpt lat="42.856228" lon="0.638967">
        <ele>1396.0</ele>
        <time>2013-04-25T09:00:06Z</time>
      </trkpt>
      <trkpt lat="42.856266" lon="0.639070">
        <ele>1399.8</ele>
        <time>2013-04-25T09:00:22Z</time>
      </trkpt>
      <trkpt lat="42.856267" lon="0.639217">
        <ele>1401.7</ele>
        <time>2013-04-25T09:00:34Z</time>
      </trkpt>
      <trkpt lat="42.856263" lon="0.639350">
        <ele>1403.7</ele>
        <time>2013-04-25T09:00:43Z</time>
      </trkpt>
      <trkpt lat="42.856308" lon="0.639475">
        <ele>1405.1</ele>
        <time>2013-04-25T09:00:52Z</time>
      </trkpt>
      <trkpt lat="42.856331" lon="0.639600">
        <ele>1406.6</ele>
        <time>2013-04-25T09:01:02Z</time>
      </trkpt>
      <trkpt lat="42.856393" lon="0.639739">
        <ele>1408.0</ele>
        <time>2013-04-25T09:01:13Z</time>
      </trkpt>
      <trkpt lat="42.856429" lon="0.639881">
        <ele>1409.9</ele>
        <time>2013-04-25T09:01:42Z</time>
      </trkpt>
      <trkpt lat="42.856484" lon="0.640048">
        <ele>1410.9</ele>
        <time>2013-04-25T09:01:56Z</time>
      </trkpt>
      <trkpt lat="42.856515" lon="0.640201">
        <ele>1412.8</ele>
        <time>2013-04-25T09:02:08Z</time>
      </trkpt>
      <trkpt lat="42.856565" lon="0.640389">
        <ele>1415.7</ele>
        <time>2013-04-25T09:02:20Z</time>
      </trkpt>
      <trkpt lat="42.856605" lon="0.640552">
        <ele>1415.7</ele>
        <time>2013-04-25T09:02:32Z</time>
      </trkpt>
      <trkpt lat="42.856653" lon="0.640767">
        <ele>1418.1</ele>
        <time>2013-04-25T09:02:43Z</time>
      </trkpt>
      <trkpt lat="42.856723" lon="0.640968">
        <ele>1419.5</ele>
        <time>2013-04-25T09:02:56Z</time>
      </trkpt>
      <trkpt lat="42.856763" lon="0.641141">
        <ele>1421.4</ele>
        <time>2013-04-25T09:03:06Z</time>
      </trkpt>
      <trkpt lat="42.856782" lon="0.641291">
        <ele>1423.8</ele>
        <time>2013-04-25T09:03:17Z</time>
      </trkpt>
      <trkpt lat="42.856814" lon="0.641440">
        <ele>1425.8</ele>
        <time>2013-04-25T09:03:27Z</time>
      </trkpt>
      <trkpt lat="42.856856" lon="0.641592">
        <ele>1427.7</ele>
        <time>2013-04-25T09:03:37Z</time>
      </trkpt>
      <trkpt lat="42.856883" lon="0.641745">
        <ele>1430.1</ele>
        <time>2013-04-25T09:03:49Z</time>
      </trkpt>
      <trkpt lat="42.856922" lon="0.641959">
        <ele>1433.5</ele>
        <time>2013-04-25T09:04:02Z</time>
      </trkpt>
      <trkpt lat="42.856946" lon="0.642150">
        <ele>1436.3</ele>
        <time>2013-04-25T09:04:16Z</time>
      </trkpt>
      <trkpt lat="42.856941" lon="0.642304">
        <ele>1438.8</ele>
        <time>2013-04-25T09:04:28Z</time>
      </trkpt>
      <trkpt lat="42.856985" lon="0.642521">
        <ele>1441.6</ele>
        <time>2013-04-25T09:04:41Z</time>
      </trkpt>
      <trkpt lat="42.857017" lon="0.642680">
        <ele>1444.0</ele>
        <time>2013-04-25T09:04:52Z</time>
      </trkpt>
      <trkpt lat="42.857042" lon="0.642819">
        <ele>1446.0</ele>
        <time>2013-04-25T09:05:02Z</time>
      </trkpt>
      <trkpt lat="42.857046" lon="0.642973">
        <ele>1448.8</ele>
        <time>2013-04-25T09:05:15Z</time>
      </trkpt>
      <trkpt lat="42.857058" lon="0.643137">
        <ele>1449.8</ele>
        <time>2013-04-25T09:05:25Z</time>
      </trkpt>
      <trkpt lat="42.857083" lon="0.643285">
        <ele>1451.7</ele>
        <time>2013-04-25T09:05:35Z</time>
      </trkpt>
      <trkpt lat="42.857094" lon="0.643439">
        <ele>1453.2</ele>
        <time>2013-04-25T09:05:46Z</time>
      </trkpt>
      <trkpt lat="42.857105" lon="0.643640">
        <ele>1455.1</ele>
        <time>2013-04-25T09:05:59Z</time>
      </trkpt>
      <trkpt lat="42.857132" lon="0.643829">
        <ele>1457.0</ele>
        <time>2013-04-25T09:06:11Z</time>
      </trkpt>
      <trkpt lat="42.857192" lon="0.644054">
        <ele>1459.9</ele>
        <time>2013-04-25T09:06:27Z</time>
      </trkpt>
      <trkpt lat="42.857255" lon="0.644254">
        <ele>1462.8</ele>
        <time>2013-04-25T09:06:40Z</time>
      </trkpt>
      <trkpt lat="42.857269" lon="0.644492">
        <ele>1466.2</ele>
        <time>2013-04-25T09:06:56Z</time>
      </trkpt>
      <trkpt lat="42.857267" lon="0.644664">
        <ele>1469.0</ele>
        <time>2013-04-25T09:07:07Z</time>
      </trkpt>
      <trkpt lat="42.857243" lon="0.644818">
        <ele>1471.4</ele>
        <time>2013-04-25T09:07:21Z</time>
      </trkpt>
      <trkpt lat="42.857276" lon="0.645040">
        <ele>1473.4</ele>
        <time>2013-04-25T09:07:35Z</time>
      </trkpt>
      <trkpt lat="42.857293" lon="0.645231">
        <ele>1475.3</ele>
        <time>2013-04-25T09:07:47Z</time>
      </trkpt>
      <trkpt lat="42.857285" lon="0.645380">
        <ele>1476.7</ele>
        <time>2013-04-25T09:07:58Z</time>
      </trkpt>
      <trkpt lat="42.857288" lon="0.645530">
        <ele>1479.1</ele>
        <time>2013-04-25T09:08:10Z</time>
      </trkpt>
      <trkpt lat="42.857274" lon="0.645705">
        <ele>1481.5</ele>
        <time>2013-04-25T09:08:24Z</time>
      </trkpt>
      <trkpt lat="42.857251" lon="0.645890">
        <ele>1483.0</ele>
        <time>2013-04-25T09:08:35Z</time>
      </trkpt>
      <trkpt lat="42.857227" lon="0.646053">
        <ele>1483.4</ele>
        <time>2013-04-25T09:08:46Z</time>
      </trkpt>
      <trkpt lat="42.857171" lon="0.646222">
        <ele>1486.8</ele>
        <time>2013-04-25T09:09:01Z</time>
      </trkpt>
      <trkpt lat="42.857179" lon="0.646436">
        <ele>1487.8</ele>
        <time>2013-04-25T09:09:13Z</time>
      </trkpt>
      <trkpt lat="42.857142" lon="0.646653">
        <ele>1488.7</ele>
        <time>2013-04-25T09:09:24Z</time>
      </trkpt>
      <trkpt lat="42.857155" lon="0.646902">
        <ele>1489.7</ele>
        <time>2013-04-25T09:09:36Z</time>
      </trkpt>
      <trkpt lat="42.857153" lon="0.647143">
        <ele>1491.1</ele>
        <time>2013-04-25T09:09:49Z</time>
      </trkpt>
      <trkpt lat="42.857122" lon="0.647274">
        <ele>1491.6</ele>
        <time>2013-04-25T09:10:01Z</time>
      </trkpt>
      <trkpt lat="42.857078" lon="0.647469">
        <ele>1493.1</ele>
        <time>2013-04-25T09:10:15Z</time>
      </trkpt>
      <trkpt lat="42.857023" lon="0.647695">
        <ele>1495.9</ele>
        <time>2013-04-25T09:10:28Z</time>
      </trkpt>
      <trkpt lat="42.856993" lon="0.647890">
        <ele>1499.3</ele>
        <time>2013-04-25T09:10:45Z</time>
      </trkpt>
      <trkpt lat="42.856962" lon="0.648122">
        <ele>1503.2</ele>
        <time>2013-04-25T09:11:03Z</time>
      </trkpt>
      <trkpt lat="42.856911" lon="0.648386">
        <ele>1506.0</ele>
        <time>2013-04-25T09:11:19Z</time>
      </trkpt>
      <trkpt lat="42.856871" lon="0.648569">
        <ele>1506.5</ele>
        <time>2013-04-25T09:11:31Z</time>
      </trkpt>
      <trkpt lat="42.856861" lon="0.648732">
        <ele>1509.4</ele>
        <time>2013-04-25T09:11:42Z</time>
      </trkpt>
      <trkpt lat="42.856880" lon="0.648920">
        <ele>1510.4</ele>
        <time>2013-04-25T09:11:54Z</time>
      </trkpt>
      <trkpt lat="42.856885" lon="0.649080">
        <ele>1511.3</ele>
        <time>2013-04-25T09:12:06Z</time>
      </trkpt>
      <trkpt lat="42.856893" lon="0.649243">
        <ele>1511.8</ele>
        <time>2013-04-25T09:12:18Z</time>
      </trkpt>
      <trkpt lat="42.856859" lon="0.649389">
        <ele>1513.7</ele>
        <time>2013-04-25T09:12:30Z</time>
      </trkpt>
      <trkpt lat="42.856847" lon="0.649551">
        <ele>1514.7</ele>
        <time>2013-04-25T09:12:43Z</time>
      </trkpt>
      <trkpt lat="42.856838" lon="0.649686">
        <ele>1515.7</ele>
        <time>2013-04-25T09:12:52Z</time>
      </trkpt>
      <trkpt lat="42.856848" lon="0.649845">
        <ele>1517.1</ele>
        <time>2013-04-25T09:13:01Z</time>
      </trkpt>
      <trkpt lat="42.856862" lon="0.649984">
        <ele>1519.0</ele>
        <time>2013-04-25T09:13:11Z</time>
      </trkpt>
      <trkpt lat="42.856871" lon="0.650115">
        <ele>1520.5</ele>
        <time>2013-04-25T09:13:20Z</time>
      </trkpt>
      <trkpt lat="42.856879" lon="0.650210">
        <ele>1520.9</ele>
        <time>2013-04-25T09:13:42Z</time>
      </trkpt>
      <trkpt lat="42.856890" lon="0.650339">
        <ele>1521.9</ele>
        <time>2013-04-25T09:13:49Z</time>
      </trkpt>
      <trkpt lat="42.856922" lon="0.650468">
        <ele>1523.3</ele>
        <time>2013-04-25T09:13:57Z</time>
      </trkpt>
      <trkpt lat="42.856942" lon="0.650607">
        <ele>1523.8</ele>
        <time>2013-04-25T09:14:05Z</time>
      </trkpt>
      <trkpt lat="42.856965" lon="0.650756">
        <ele>1525.3</ele>
        <time>2013-04-25T09:14:13Z</time>
      </trkpt>
      <trkpt lat="42.856986" lon="0.650891">
        <ele>1526.2</ele>
        <time>2013-04-25T09:14:21Z</time>
      </trkpt>
      <trkpt lat="42.857004" lon="0.651028">
        <ele>1528.2</ele>
        <time>2013-04-25T09:14:29Z</time>
      </trkpt>
      <trkpt lat="42.857004" lon="0.651147">
        <ele>1529.1</ele>
        <time>2013-04-25T09:14:37Z</time>
      </trkpt>
      <trkpt lat="42.857008" lon="0.651274">
        <ele>1531.0</ele>
        <time>2013-04-25T09:14:46Z</time>
      </trkpt>
      <trkpt lat="42.857019" lon="0.651400">
        <ele>1533.4</ele>
        <time>2013-04-25T09:14:54Z</time>
      </trkpt>
      <trkpt lat="42.857013" lon="0.651490">
        <ele>1534.9</ele>
        <time>2013-04-25T09:15:19Z</time>
      </trkpt>
      <trkpt lat="42.857039" lon="0.651635">
        <ele>1536.8</ele>
        <time>2013-04-25T09:15:29Z</time>
      </trkpt>
      <trkpt lat="42.857046" lon="0.651765">
        <ele>1538.7</ele>
        <time>2013-04-25T09:15:38Z</time>
      </trkpt>
      <trkpt lat="42.857075" lon="0.651903">
        <ele>1539.7</ele>
        <time>2013-04-25T09:16:09Z</time>
      </trkpt>
      <trkpt lat="42.857073" lon="0.652059">
        <ele>1545.0</ele>
        <time>2013-04-25T09:27:23Z</time>
      </trkpt>
      <trkpt lat="42.857060" lon="0.652208">
        <ele>1545.0</ele>
        <time>2013-04-25T09:27:49Z</time>
        <name>Cab. de Salode</name>
      </trkpt>
      <trkpt lat="42.857009" lon="0.652328">
        <ele>1542.6</ele>
        <time>2013-04-25T09:28:07Z</time>
      </trkpt>
      <trkpt lat="42.856968" lon="0.652425">
        <ele>1539.2</ele>
        <time>2013-04-25T09:28:30Z</time>
      </trkpt>
      <trkpt lat="42.856861" lon="0.652513">
        <ele>1537.3</ele>
        <time>2013-04-25T09:28:39Z</time>
      </trkpt>
      <trkpt lat="42.856787" lon="0.652619">
        <ele>1533.9</ele>
        <time>2013-04-25T09:28:49Z</time>
      </trkpt>
      <trkpt lat="42.856692" lon="0.652701">
        <ele>1531.5</ele>
        <time>2013-04-25T09:28:57Z</time>
      </trkpt>
      <trkpt lat="42.856580" lon="0.652730">
        <ele>1530.6</ele>
        <time>2013-04-25T09:29:04Z</time>
      </trkpt>
      <trkpt lat="42.856475" lon="0.652751">
        <ele>1530.1</ele>
        <time>2013-04-25T09:29:09Z</time>
      </trkpt>
      <trkpt lat="42.856374" lon="0.652780">
        <ele>1529.6</ele>
        <time>2013-04-25T09:29:17Z</time>
      </trkpt>
      <trkpt lat="42.856288" lon="0.652809">
        <ele>1529.6</ele>
        <time>2013-04-25T09:29:23Z</time>
      </trkpt>
      <trkpt lat="42.856201" lon="0.652778">
        <ele>1526.2</ele>
        <time>2013-04-25T09:29:39Z</time>
      </trkpt>
      <trkpt lat="42.856111" lon="0.652839">
        <ele>1523.3</ele>
        <time>2013-04-25T09:29:49Z</time>
      </trkpt>
      <trkpt lat="42.856014" lon="0.652847">
        <ele>1520.9</ele>
        <time>2013-04-25T09:29:58Z</time>
      </trkpt>
      <trkpt lat="42.855918" lon="0.652851">
        <ele>1520.9</ele>
        <time>2013-04-25T09:30:11Z</time>
      </trkpt>
      <trkpt lat="42.855616" lon="0.652749">
        <ele>1538.0</ele>
        <time>2013-04-25T09:30:24Z</time>
      </trkpt>
      <trkpt lat="42.855446" lon="0.652589">
        <ele>1535.7</ele>
        <time>2013-04-25T09:30:33Z</time>
      </trkpt>
      <trkpt lat="42.855237" lon="0.652393">
        <ele>1532.2</ele>
        <time>2013-04-25T09:30:43Z</time>
      </trkpt>
      <trkpt lat="42.855028" lon="0.652358">
        <ele>1530.1</ele>
        <time>2013-04-25T09:31:04Z</time>
      </trkpt>
      <trkpt lat="42.854754" lon="0.652464">
        <ele>1536.5</ele>
        <time>2013-04-25T09:32:22Z</time>
      </trkpt>
      <trkpt lat="42.854441" lon="0.652589">
        <ele>1545.1</ele>
        <time>2013-04-25T09:32:33Z</time>
      </trkpt>
      <trkpt lat="42.854166" lon="0.652767">
        <ele>1553.5</ele>
        <time>2013-04-25T09:32:47Z</time>
      </trkpt>
      <trkpt lat="42.853892" lon="0.653123">
        <ele>1563.2</ele>
        <time>2013-04-25T09:33:09Z</time>
      </trkpt>
      <trkpt lat="42.853605" lon="0.653408">
        <ele>1572.0</ele>
        <time>2013-04-25T09:34:34Z</time>
      </trkpt>
      <trkpt lat="42.853383" lon="0.653676">
        <ele>1578.1</ele>
        <time>2013-04-25T09:34:52Z</time>
      </trkpt>
      <trkpt lat="42.853156" lon="0.653860">
        <ele>1583.4</ele>
        <time>2013-04-25T09:35:56Z</time>
      </trkpt>
      <trkpt lat="42.852990" lon="0.654005">
        <ele>1587.3</ele>
        <time>2013-04-25T09:37:52Z</time>
        <name>Cab. Courrau Vieil</name>
      </trkpt>
      <trkpt lat="42.852883" lon="0.654100">
        <ele>1589.9</ele>
        <time>2013-04-25T09:38:57Z</time>
      </trkpt>
      <trkpt lat="42.852718" lon="0.654217">
        <ele>1593.6</ele>
        <time>2013-04-25T09:39:18Z</time>
      </trkpt>
      <trkpt lat="42.852611" lon="0.654319">
        <ele>1595.9</ele>
        <time>2013-04-25T09:39:28Z</time>
      </trkpt>
      <trkpt lat="42.852488" lon="0.654406">
        <ele>1598.1</ele>
        <time>2013-04-25T09:39:38Z</time>
      </trkpt>
      <trkpt lat="42.852386" lon="0.654486">
        <ele>1599.1</ele>
        <time>2013-04-25T09:40:16Z</time>
      </trkpt>
      <trkpt lat="42.852226" lon="0.654566">
        <ele>1600.9</ele>
        <time>2013-04-25T09:40:25Z</time>
      </trkpt>
      <trkpt lat="42.852082" lon="0.654622">
        <ele>1602.7</ele>
        <time>2013-04-25T09:40:35Z</time>
      </trkpt>
      <trkpt lat="42.851875" lon="0.654795">
        <ele>1606.6</ele>
        <time>2013-04-25T09:41:25Z</time>
      </trkpt>
      <trkpt lat="42.851693" lon="0.654899">
        <ele>1610.4</ele>
        <time>2013-04-25T09:41:33Z</time>
      </trkpt>
      <trkpt lat="42.851541" lon="0.655002">
        <ele>1612.9</ele>
        <time>2013-04-25T09:41:42Z</time>
      </trkpt>
      <trkpt lat="42.851309" lon="0.655095">
        <ele>1616.8</ele>
        <time>2013-04-25T09:43:02Z</time>
      </trkpt>
      <trkpt lat="42.851128" lon="0.655176">
        <ele>1630.5</ele>
        <time>2013-04-25T09:43:15Z</time>
      </trkpt>
      <trkpt lat="42.851049" lon="0.655183">
        <ele>1633.4</ele>
        <time>2013-04-25T09:43:33Z</time>
      </trkpt>
      <trkpt lat="42.851004" lon="0.655164">
        <ele>1621.1</ele>
        <time>2013-04-25T09:43:51Z</time>
      </trkpt>
      <trkpt lat="42.850928" lon="0.655222">
        <ele>1623.7</ele>
        <time>2013-04-25T09:44:08Z</time>
      </trkpt>
      <trkpt lat="42.850860" lon="0.655256">
        <ele>1625.1</ele>
        <time>2013-04-25T09:44:25Z</time>
      </trkpt>
      <trkpt lat="42.850805" lon="0.655360">
        <ele>1629.3</ele>
        <time>2013-04-25T09:44:40Z</time>
      </trkpt>
      <trkpt lat="42.850746" lon="0.655487">
        <ele>1634.8</ele>
        <time>2013-04-25T09:44:57Z</time>
      </trkpt>
      <trkpt lat="42.850725" lon="0.655620">
        <ele>1639.2</ele>
        <time>2013-04-25T09:45:10Z</time>
      </trkpt>
      <trkpt lat="42.850704" lon="0.655729">
        <ele>1643.1</ele>
        <time>2013-04-25T09:45:26Z</time>
      </trkpt>
      <trkpt lat="42.850713" lon="0.655879">
        <ele>1646.8</ele>
        <time>2013-04-25T09:45:42Z</time>
      </trkpt>
      <trkpt lat="42.850700" lon="0.655994">
        <ele>1649.3</ele>
        <time>2013-04-25T09:45:56Z</time>
      </trkpt>
      <trkpt lat="42.850704" lon="0.656092">
        <ele>1651.1</ele>
        <time>2013-04-25T09:46:10Z</time>
      </trkpt>
      <trkpt lat="42.850696" lon="0.656185">
        <ele>1653.1</ele>
        <time>2013-04-25T09:46:25Z</time>
      </trkpt>
      <trkpt lat="42.850679" lon="0.656265">
        <ele>1655.0</ele>
        <time>2013-04-25T09:46:39Z</time>
      </trkpt>
      <trkpt lat="42.850670" lon="0.656381">
        <ele>1657.5</ele>
        <time>2013-04-25T09:46:58Z</time>
      </trkpt>
      <trkpt lat="42.850675" lon="0.656502">
        <ele>1659.6</ele>
        <time>2013-04-25T09:47:14Z</time>
      </trkpt>
      <trkpt lat="42.850636" lon="0.656629">
        <ele>1663.1</ele>
        <time>2013-04-25T09:47:29Z</time>
      </trkpt>
      <trkpt lat="42.850607" lon="0.656715">
        <ele>1665.6</ele>
        <time>2013-04-25T09:47:47Z</time>
      </trkpt>
      <trkpt lat="42.850556" lon="0.656831">
        <ele>1669.8</ele>
        <time>2013-04-25T09:48:04Z</time>
      </trkpt>
      <trkpt lat="42.850526" lon="0.656911">
        <ele>1672.4</ele>
        <time>2013-04-25T09:48:20Z</time>
      </trkpt>
      <trkpt lat="42.850485" lon="0.657033">
        <ele>1676.5</ele>
        <time>2013-04-25T09:48:34Z</time>
      </trkpt>
      <trkpt lat="42.850507" lon="0.657171">
        <ele>1701.2</ele>
        <time>2013-04-25T09:48:48Z</time>
      </trkpt>
      <trkpt lat="42.850512" lon="0.657297">
        <ele>1705.0</ele>
        <time>2013-04-25T09:49:04Z</time>
      </trkpt>
      <trkpt lat="42.850470" lon="0.657398">
        <ele>1707.9</ele>
        <time>2013-04-25T09:49:20Z</time>
      </trkpt>
      <trkpt lat="42.850464" lon="0.657519">
        <ele>1711.3</ele>
        <time>2013-04-25T09:49:36Z</time>
      </trkpt>
      <trkpt lat="42.850433" lon="0.657651">
        <ele>1715.1</ele>
        <time>2013-04-25T09:49:54Z</time>
      </trkpt>
      <trkpt lat="42.850435" lon="0.657767">
        <ele>1718.0</ele>
        <time>2013-04-25T09:50:16Z</time>
      </trkpt>
      <trkpt lat="42.850459" lon="0.657868">
        <ele>1720.9</ele>
        <time>2013-04-25T09:50:31Z</time>
      </trkpt>
      <trkpt lat="42.850498" lon="0.657988">
        <ele>1724.3</ele>
        <time>2013-04-25T09:50:50Z</time>
      </trkpt>
      <trkpt lat="42.850514" lon="0.658111">
        <ele>1727.2</ele>
        <time>2013-04-25T09:51:10Z</time>
      </trkpt>
      <trkpt lat="42.850542" lon="0.658230">
        <ele>1730.5</ele>
        <time>2013-04-25T09:51:31Z</time>
      </trkpt>
      <trkpt lat="42.850519" lon="0.658352">
        <ele>1733.9</ele>
        <time>2013-04-25T09:51:48Z</time>
      </trkpt>
      <trkpt lat="42.850523" lon="0.658467">
        <ele>1736.8</ele>
        <time>2013-04-25T09:52:04Z</time>
      </trkpt>
      <trkpt lat="42.850541" lon="0.658590">
        <ele>1740.1</ele>
        <time>2013-04-25T09:52:21Z</time>
      </trkpt>
      <trkpt lat="42.850516" lon="0.658724">
        <ele>1743.5</ele>
        <time>2013-04-25T09:52:37Z</time>
      </trkpt>
      <trkpt lat="42.850530" lon="0.658840">
        <ele>1746.4</ele>
        <time>2013-04-25T09:52:50Z</time>
      </trkpt>
      <trkpt lat="42.850540" lon="0.658966">
        <ele>1749.7</ele>
        <time>2013-04-25T09:53:04Z</time>
      </trkpt>
      <trkpt lat="42.850560" lon="0.659090">
        <ele>1752.1</ele>
        <time>2013-04-25T09:53:26Z</time>
      </trkpt>
      <trkpt lat="42.850572" lon="0.659211">
        <ele>1755.5</ele>
        <time>2013-04-25T09:53:42Z</time>
      </trkpt>
      <trkpt lat="42.850578" lon="0.659340">
        <ele>1758.4</ele>
        <time>2013-04-25T09:53:59Z</time>
      </trkpt>
      <trkpt lat="42.850598" lon="0.659452">
        <ele>1761.3</ele>
        <time>2013-04-25T09:54:13Z</time>
      </trkpt>
      <trkpt lat="42.850604" lon="0.659566">
        <ele>1764.2</ele>
        <time>2013-04-25T09:54:26Z</time>
      </trkpt>
      <trkpt lat="42.850651" lon="0.659680">
        <ele>1766.1</ele>
        <time>2013-04-25T09:54:36Z</time>
      </trkpt>
      <trkpt lat="42.850702" lon="0.659794">
        <ele>1767.5</ele>
        <time>2013-04-25T09:54:46Z</time>
      </trkpt>
      <trkpt lat="42.850743" lon="0.659920">
        <ele>1769.0</ele>
        <time>2013-04-25T09:54:56Z</time>
      </trkpt>
      <trkpt lat="42.850783" lon="0.660041">
        <ele>1770.9</ele>
        <time>2013-04-25T09:55:06Z</time>
      </trkpt>
      <trkpt lat="42.850834" lon="0.660146">
        <ele>1772.3</ele>
        <time>2013-04-25T09:55:17Z</time>
      </trkpt>
      <trkpt lat="42.850864" lon="0.660270">
        <ele>1774.7</ele>
        <time>2013-04-25T09:55:28Z</time>
      </trkpt>
      <trkpt lat="42.850891" lon="0.660378">
        <ele>1777.6</ele>
        <time>2013-04-25T09:55:38Z</time>
      </trkpt>
      <trkpt lat="42.850934" lon="0.660494">
        <ele>1779.5</ele>
        <time>2013-04-25T09:55:50Z</time>
      </trkpt>
      <trkpt lat="42.850972" lon="0.660617">
        <ele>1781.9</ele>
        <time>2013-04-25T09:56:03Z</time>
      </trkpt>
      <trkpt lat="42.851002" lon="0.660729">
        <ele>1784.8</ele>
        <time>2013-04-25T09:56:16Z</time>
      </trkpt>
      <trkpt lat="42.851051" lon="0.660848">
        <ele>1787.2</ele>
        <time>2013-04-25T09:56:28Z</time>
      </trkpt>
      <trkpt lat="42.851077" lon="0.660966">
        <ele>1789.2</ele>
        <time>2013-04-25T09:56:43Z</time>
      </trkpt>
      <trkpt lat="42.851113" lon="0.661089">
        <ele>1792.5</ele>
        <time>2013-04-25T09:56:59Z</time>
      </trkpt>
      <trkpt lat="42.851159" lon="0.661198">
        <ele>1794.9</ele>
        <time>2013-04-25T09:57:17Z</time>
      </trkpt>
      <trkpt lat="42.851194" lon="0.661287">
        <ele>1798.3</ele>
        <time>2013-04-25T09:57:35Z</time>
      </trkpt>
      <trkpt lat="42.851215" lon="0.661404">
        <ele>1801.2</ele>
        <time>2013-04-25T09:57:54Z</time>
      </trkpt>
      <trkpt lat="42.851244" lon="0.661518">
        <ele>1805.0</ele>
        <time>2013-04-25T09:58:11Z</time>
      </trkpt>
      <trkpt lat="42.851257" lon="0.661608">
        <ele>1786.0</ele>
        <time>2013-04-25T09:58:28Z</time>
      </trkpt>
      <trkpt lat="42.851265" lon="0.661718">
        <ele>1809.8</ele>
        <time>2013-04-25T09:58:44Z</time>
      </trkpt>
      <trkpt lat="42.851289" lon="0.661818">
        <ele>1813.2</ele>
        <time>2013-04-25T09:58:59Z</time>
      </trkpt>
      <trkpt lat="42.851346" lon="0.661919">
        <ele>1815.6</ele>
        <time>2013-04-25T09:59:17Z</time>
      </trkpt>
      <trkpt lat="42.851348" lon="0.662079">
        <ele>1793.4</ele>
        <time>2013-04-25T09:59:34Z</time>
      </trkpt>
      <trkpt lat="42.851364" lon="0.662178">
        <ele>1795.3</ele>
        <time>2013-04-25T09:59:48Z</time>
      </trkpt>
      <trkpt lat="42.851376" lon="0.662302">
        <ele>1797.7</ele>
        <time>2013-04-25T10:00:04Z</time>
      </trkpt>
      <trkpt lat="42.851362" lon="0.662433">
        <ele>1801.4</ele>
        <time>2013-04-25T10:00:22Z</time>
      </trkpt>
      <trkpt lat="42.851357" lon="0.662582">
        <ele>1805.0</ele>
        <time>2013-04-25T10:00:43Z</time>
      </trkpt>
      <trkpt lat="42.851355" lon="0.662731">
        <ele>1807.7</ele>
        <time>2013-04-25T10:00:54Z</time>
      </trkpt>
      <trkpt lat="42.851394" lon="0.662848">
        <ele>1808.5</ele>
        <time>2013-04-25T10:01:04Z</time>
      </trkpt>
      <trkpt lat="42.851394" lon="0.662957">
        <ele>1810.7</ele>
        <time>2013-04-25T10:01:15Z</time>
      </trkpt>
      <trkpt lat="42.851394" lon="0.663072">
        <ele>1812.9</ele>
        <time>2013-04-25T10:01:29Z</time>
      </trkpt>
      <trkpt lat="42.851401" lon="0.663190">
        <ele>1814.8</ele>
        <time>2013-04-25T10:01:40Z</time>
      </trkpt>
      <trkpt lat="42.851396" lon="0.663311">
        <ele>1817.2</ele>
        <time>2013-04-25T10:01:51Z</time>
      </trkpt>
      <trkpt lat="42.851391" lon="0.663451">
        <ele>1819.8</ele>
        <time>2013-04-25T10:02:02Z</time>
      </trkpt>
      <trkpt lat="42.851394" lon="0.663556">
        <ele>1821.5</ele>
        <time>2013-04-25T10:02:12Z</time>
      </trkpt>
      <trkpt lat="42.851371" lon="0.663696">
        <ele>1824.6</ele>
        <time>2013-04-25T10:02:23Z</time>
      </trkpt>
      <trkpt lat="42.851380" lon="0.663845">
        <ele>1826.6</ele>
        <time>2013-04-25T10:02:35Z</time>
      </trkpt>
      <trkpt lat="42.851391" lon="0.664016">
        <ele>1829.0</ele>
        <time>2013-04-25T10:02:45Z</time>
      </trkpt>
      <trkpt lat="42.851401" lon="0.664174">
        <ele>1831.2</ele>
        <time>2013-04-25T10:02:55Z</time>
      </trkpt>
      <trkpt lat="42.851389" lon="0.664311">
        <ele>1833.8</ele>
        <time>2013-04-25T10:03:05Z</time>
      </trkpt>
      <trkpt lat="42.851394" lon="0.664432">
        <ele>1835.5</ele>
        <time>2013-04-25T10:03:15Z</time>
      </trkpt>
      <trkpt lat="42.851403" lon="0.664537">
        <ele>1836.7</ele>
        <time>2013-04-25T10:03:26Z</time>
      </trkpt>
      <trkpt lat="42.851378" lon="0.664658">
        <ele>1839.3</ele>
        <time>2013-04-25T10:03:38Z</time>
        <name>Cab. Mouscade</name>
      </trkpt>
      <trkpt lat="42.851382" lon="0.664733">
        <ele>1840.3</ele>
        <time>2013-04-25T10:04:12Z</time>
      </trkpt>
      <trkpt lat="42.851394" lon="0.664829">
        <ele>1841.6</ele>
        <time>2013-04-25T10:04:33Z</time>
      </trkpt>
      <trkpt lat="42.851401" lon="0.664904">
        <ele>1842.3</ele>
        <time>2013-04-25T10:04:48Z</time>
      </trkpt>
      <trkpt lat="42.851407" lon="0.665022">
        <ele>1844.0</ele>
        <time>2013-04-25T10:05:01Z</time>
      </trkpt>
      <trkpt lat="42.851433" lon="0.665112">
        <ele>1845.5</ele>
        <time>2013-04-25T10:05:13Z</time>
      </trkpt>
      <trkpt lat="42.851491" lon="0.665220">
        <ele>1862.2</ele>
        <time>2013-04-25T10:05:25Z</time>
      </trkpt>
      <trkpt lat="42.851511" lon="0.665345">
        <ele>1864.1</ele>
        <time>2013-04-25T10:05:39Z</time>
      </trkpt>
      <trkpt lat="42.851534" lon="0.665464">
        <ele>1867.0</ele>
        <time>2013-04-25T10:05:53Z</time>
      </trkpt>
      <trkpt lat="42.851501" lon="0.665570">
        <ele>1867.0</ele>
        <time>2013-04-25T10:06:05Z</time>
      </trkpt>
      <trkpt lat="42.851519" lon="0.665663">
        <ele>1872.3</ele>
        <time>2013-04-25T10:06:47Z</time>
      </trkpt>
      <trkpt lat="42.851518" lon="0.665675">
        <ele>1874.2</ele>
        <time>2013-04-25T10:13:45Z</time>
      </trkpt>
      <trkpt lat="42.851518" lon="0.665727">
        <ele>1874.7</ele>
        <time>2013-04-25T10:14:16Z</time>
      </trkpt>
      <trkpt lat="42.851572" lon="0.665832">
        <ele>1874.7</ele>
        <time>2013-04-25T10:14:25Z</time>
      </trkpt>
      <trkpt lat="42.851641" lon="0.665929">
        <ele>1874.7</ele>
        <time>2013-04-25T10:14:34Z</time>
      </trkpt>
      <trkpt lat="42.851671" lon="0.666026">
        <ele>1876.2</ele>
        <time>2013-04-25T10:14:46Z</time>
      </trkpt>
      <trkpt lat="42.851682" lon="0.666163">
        <ele>1878.1</ele>
        <time>2013-04-25T10:14:58Z</time>
      </trkpt>
      <trkpt lat="42.851729" lon="0.666270">
        <ele>1880.5</ele>
        <time>2013-04-25T10:15:09Z</time>
      </trkpt>
      <trkpt lat="42.851761" lon="0.666393">
        <ele>1881.4</ele>
        <time>2013-04-25T10:15:20Z</time>
      </trkpt>
      <trkpt lat="42.851799" lon="0.666506">
        <ele>1890.0</ele>
        <time>2013-04-25T10:15:35Z</time>
      </trkpt>
      <trkpt lat="42.851830" lon="0.666624">
        <ele>1895.4</ele>
        <time>2013-04-25T10:15:44Z</time>
      </trkpt>
      <trkpt lat="42.851857" lon="0.666724">
        <ele>1899.8</ele>
        <time>2013-04-25T10:15:55Z</time>
      </trkpt>
      <trkpt lat="42.851870" lon="0.666816">
        <ele>1902.8</ele>
        <time>2013-04-25T10:16:08Z</time>
      </trkpt>
      <trkpt lat="42.851874" lon="0.666956">
        <ele>1907.1</ele>
        <time>2013-04-25T10:16:19Z</time>
      </trkpt>
      <trkpt lat="42.851863" lon="0.667005">
        <ele>1885.8</ele>
        <time>2013-04-25T10:17:58Z</time>
      </trkpt>
      <trkpt lat="42.851885" lon="0.667120">
        <ele>1884.8</ele>
        <time>2013-04-25T10:18:09Z</time>
      </trkpt>
      <trkpt lat="42.851911" lon="0.667226">
        <ele>1884.8</ele>
        <time>2013-04-25T10:18:19Z</time>
      </trkpt>
      <trkpt lat="42.851911" lon="0.667360">
        <ele>1885.8</ele>
        <time>2013-04-25T10:18:32Z</time>
      </trkpt>
      <trkpt lat="42.851923" lon="0.667468">
        <ele>1887.2</ele>
        <time>2013-04-25T10:18:43Z</time>
      </trkpt>
      <trkpt lat="42.851918" lon="0.667605">
        <ele>1888.2</ele>
        <time>2013-04-25T10:18:55Z</time>
      </trkpt>
      <trkpt lat="42.851900" lon="0.667720">
        <ele>1889.6</ele>
        <time>2013-04-25T10:19:08Z</time>
      </trkpt>
      <trkpt lat="42.851877" lon="0.667847">
        <ele>1892.0</ele>
        <time>2013-04-25T10:19:24Z</time>
      </trkpt>
      <trkpt lat="42.851845" lon="0.667972">
        <ele>1894.4</ele>
        <time>2013-04-25T10:19:38Z</time>
      </trkpt>
      <trkpt lat="42.851827" lon="0.668078">
        <ele>1896.3</ele>
        <time>2013-04-25T10:19:52Z</time>
      </trkpt>
      <trkpt lat="42.851806" lon="0.668207">
        <ele>1897.8</ele>
        <time>2013-04-25T10:20:10Z</time>
      </trkpt>
      <trkpt lat="42.851769" lon="0.668306">
        <ele>1902.1</ele>
        <time>2013-04-25T10:20:25Z</time>
      </trkpt>
      <trkpt lat="42.851734" lon="0.668411">
        <ele>1904.0</ele>
        <time>2013-04-25T10:20:41Z</time>
      </trkpt>
      <trkpt lat="42.851723" lon="0.668549">
        <ele>1906.9</ele>
        <time>2013-04-25T10:20:59Z</time>
      </trkpt>
      <trkpt lat="42.851684" lon="0.668676">
        <ele>1909.3</ele>
        <time>2013-04-25T10:21:15Z</time>
      </trkpt>
      <trkpt lat="42.851636" lon="0.668816">
        <ele>1911.7</ele>
        <time>2013-04-25T10:21:31Z</time>
      </trkpt>
      <trkpt lat="42.851601" lon="0.668929">
        <ele>1913.6</ele>
        <time>2013-04-25T10:21:44Z</time>
      </trkpt>
      <trkpt lat="42.851564" lon="0.669054">
        <ele>1916.0</ele>
        <time>2013-04-25T10:22:00Z</time>
      </trkpt>
      <trkpt lat="42.851517" lon="0.669155">
        <ele>1918.0</ele>
        <time>2013-04-25T10:22:15Z</time>
      </trkpt>
      <trkpt lat="42.851490" lon="0.669285">
        <ele>1920.8</ele>
        <time>2013-04-25T10:22:29Z</time>
      </trkpt>
      <trkpt lat="42.851463" lon="0.669395">
        <ele>1922.8</ele>
        <time>2013-04-25T10:22:43Z</time>
      </trkpt>
      <trkpt lat="42.851465" lon="0.669533">
        <ele>1924.7</ele>
        <time>2013-04-25T10:22:57Z</time>
      </trkpt>
      <trkpt lat="42.851471" lon="0.669655">
        <ele>1926.1</ele>
        <time>2013-04-25T10:23:09Z</time>
      </trkpt>
      <trkpt lat="42.851471" lon="0.669767">
        <ele>1928.1</ele>
        <time>2013-04-25T10:23:21Z</time>
      </trkpt>
      <trkpt lat="42.851447" lon="0.669885">
        <ele>1930.0</ele>
        <time>2013-04-25T10:23:35Z</time>
      </trkpt>
      <trkpt lat="42.851432" lon="0.670022">
        <ele>1931.9</ele>
        <time>2013-04-25T10:23:51Z</time>
      </trkpt>
      <trkpt lat="42.851436" lon="0.670133">
        <ele>1932.4</ele>
        <time>2013-04-25T10:24:03Z</time>
      </trkpt>
      <trkpt lat="42.851433" lon="0.670257">
        <ele>1933.8</ele>
        <time>2013-04-25T10:24:15Z</time>
      </trkpt>
      <trkpt lat="42.851461" lon="0.670381">
        <ele>1934.8</ele>
        <time>2013-04-25T10:24:45Z</time>
      </trkpt>
      <trkpt lat="42.851454" lon="0.670515">
        <ele>1935.3</ele>
        <time>2013-04-25T10:24:57Z</time>
      </trkpt>
      <trkpt lat="42.851448" lon="0.670645">
        <ele>1936.7</ele>
        <time>2013-04-25T10:25:10Z</time>
      </trkpt>
      <trkpt lat="42.851450" lon="0.670763">
        <ele>1937.2</ele>
        <time>2013-04-25T10:25:22Z</time>
      </trkpt>
      <trkpt lat="42.851457" lon="0.670877">
        <ele>1937.2</ele>
        <time>2013-04-25T10:25:35Z</time>
      </trkpt>
      <trkpt lat="42.851480" lon="0.670978">
        <ele>1938.2</ele>
        <time>2013-04-25T10:25:47Z</time>
      </trkpt>
      <trkpt lat="42.851496" lon="0.671095">
        <ele>1938.6</ele>
        <time>2013-04-25T10:25:59Z</time>
      </trkpt>
      <trkpt lat="42.851514" lon="0.671199">
        <ele>1939.6</ele>
        <time>2013-04-25T10:26:12Z</time>
      </trkpt>
      <trkpt lat="42.851517" lon="0.671326">
        <ele>1940.6</ele>
        <time>2013-04-25T10:26:29Z</time>
      </trkpt>
      <trkpt lat="42.851535" lon="0.671444">
        <ele>1942.5</ele>
        <time>2013-04-25T10:26:45Z</time>
      </trkpt>
      <trkpt lat="42.851555" lon="0.671569">
        <ele>1943.9</ele>
        <time>2013-04-25T10:27:00Z</time>
      </trkpt>
      <trkpt lat="42.851565" lon="0.671685">
        <ele>1945.4</ele>
        <time>2013-04-25T10:27:14Z</time>
      </trkpt>
      <trkpt lat="42.851575" lon="0.671806">
        <ele>1946.8</ele>
        <time>2013-04-25T10:27:29Z</time>
      </trkpt>
      <trkpt lat="42.851596" lon="0.671945">
        <ele>1947.8</ele>
        <time>2013-04-25T10:27:47Z</time>
      </trkpt>
      <trkpt lat="42.851617" lon="0.672057">
        <ele>1948.7</ele>
        <time>2013-04-25T10:28:02Z</time>
      </trkpt>
      <trkpt lat="42.851669" lon="0.672162">
        <ele>1950.7</ele>
        <time>2013-04-25T10:28:17Z</time>
      </trkpt>
      <trkpt lat="42.851714" lon="0.672277">
        <ele>1952.1</ele>
        <time>2013-04-25T10:28:31Z</time>
      </trkpt>
      <trkpt lat="42.851710" lon="0.672402">
        <ele>1952.1</ele>
        <time>2013-04-25T10:28:43Z</time>
      </trkpt>
      <trkpt lat="42.851725" lon="0.672504">
        <ele>1953.1</ele>
        <time>2013-04-25T10:28:57Z</time>
      </trkpt>
      <trkpt lat="42.851709" lon="0.672625">
        <ele>1954.0</ele>
        <time>2013-04-25T10:29:58Z</time>
      </trkpt>
      <trkpt lat="42.851678" lon="0.672748">
        <ele>1954.0</ele>
        <time>2013-04-25T10:30:10Z</time>
      </trkpt>
      <trkpt lat="42.851680" lon="0.672855">
        <ele>1954.0</ele>
        <time>2013-04-25T10:30:22Z</time>
      </trkpt>
      <trkpt lat="42.851626" lon="0.672938">
        <ele>1955.0</ele>
        <time>2013-04-25T10:30:35Z</time>
      </trkpt>
      <trkpt lat="42.851603" lon="0.673074">
        <ele>1957.4</ele>
        <time>2013-04-25T10:30:53Z</time>
      </trkpt>
      <trkpt lat="42.851575" lon="0.673180">
        <ele>1960.3</ele>
        <time>2013-04-25T10:31:11Z</time>
      </trkpt>
      <trkpt lat="42.851600" lon="0.673281">
        <ele>1962.2</ele>
        <time>2013-04-25T10:31:26Z</time>
      </trkpt>
      <trkpt lat="42.851565" lon="0.673360">
        <ele>1966.0</ele>
        <time>2013-04-25T10:31:45Z</time>
      </trkpt>
      <trkpt lat="42.851560" lon="0.673548">
        <ele>1969.4</ele>
        <time>2013-04-25T10:32:09Z</time>
      </trkpt>
      <trkpt lat="42.851519" lon="0.673674">
        <ele>1971.8</ele>
        <time>2013-04-25T10:32:26Z</time>
      </trkpt>
      <trkpt lat="42.851504" lon="0.673829">
        <ele>1975.2</ele>
        <time>2013-04-25T10:32:44Z</time>
      </trkpt>
      <trkpt lat="42.851483" lon="0.673985">
        <ele>1977.6</ele>
        <time>2013-04-25T10:33:01Z</time>
      </trkpt>
      <trkpt lat="42.851410" lon="0.674035">
        <ele>1980.9</ele>
        <time>2013-04-25T10:33:19Z</time>
      </trkpt>
      <trkpt lat="42.851308" lon="0.674049">
        <ele>1980.4</ele>
        <time>2013-04-25T10:33:39Z</time>
      </trkpt>
      <trkpt lat="42.851256" lon="0.674195">
        <ele>1993.9</ele>
        <time>2013-04-25T10:35:29Z</time>
      </trkpt>
      <trkpt lat="42.851224" lon="0.674308">
        <ele>1997.3</ele>
        <time>2013-04-25T10:35:45Z</time>
      </trkpt>
      <trkpt lat="42.851147" lon="0.674395">
        <ele>2001.1</ele>
        <time>2013-04-25T10:36:05Z</time>
      </trkpt>
      <trkpt lat="42.851096" lon="0.674473">
        <ele>2004.0</ele>
        <time>2013-04-25T10:36:21Z</time>
      </trkpt>
      <trkpt lat="42.851024" lon="0.674621">
        <ele>2008.8</ele>
        <time>2013-04-25T10:36:56Z</time>
      </trkpt>
      <trkpt lat="42.850947" lon="0.674662">
        <ele>2011.7</ele>
        <time>2013-04-25T10:37:15Z</time>
      </trkpt>
      <trkpt lat="42.850883" lon="0.674733">
        <ele>2015.1</ele>
        <time>2013-04-25T10:37:37Z</time>
      </trkpt>
      <trkpt lat="42.850848" lon="0.674844">
        <ele>2018.4</ele>
        <time>2013-04-25T10:37:58Z</time>
      </trkpt>
      <trkpt lat="42.850798" lon="0.674890">
        <ele>2020.8</ele>
        <time>2013-04-25T10:38:15Z</time>
      </trkpt>
      <trkpt lat="42.850758" lon="0.674996">
        <ele>2023.7</ele>
        <time>2013-04-25T10:38:35Z</time>
      </trkpt>
      <trkpt lat="42.850721" lon="0.675136">
        <ele>2027.6</ele>
        <time>2013-04-25T10:39:01Z</time>
      </trkpt>
      <trkpt lat="42.850711" lon="0.675250">
        <ele>2030.4</ele>
        <time>2013-04-25T10:39:24Z</time>
      </trkpt>
      <trkpt lat="42.850657" lon="0.675394">
        <ele>2034.3</ele>
        <time>2013-04-25T10:39:47Z</time>
      </trkpt>
      <trkpt lat="42.850622" lon="0.675497">
        <ele>2036.7</ele>
        <time>2013-04-25T10:40:09Z</time>
      </trkpt>
      <trkpt lat="42.850558" lon="0.675609">
        <ele>2038.6</ele>
        <time>2013-04-25T10:40:30Z</time>
      </trkpt>
      <trkpt lat="42.850492" lon="0.675707">
        <ele>2040.1</ele>
        <time>2013-04-25T10:40:48Z</time>
      </trkpt>
      <trkpt lat="42.850406" lon="0.675785">
        <ele>2041.0</ele>
        <time>2013-04-25T10:41:03Z</time>
      </trkpt>
      <trkpt lat="42.850345" lon="0.675867">
        <ele>2042.5</ele>
        <time>2013-04-25T10:41:17Z</time>
      </trkpt>
      <trkpt lat="42.850259" lon="0.675867">
        <ele>2042.9</ele>
        <time>2013-04-25T10:41:31Z</time>
      </trkpt>
      <trkpt lat="42.850190" lon="0.675894">
        <ele>2044.4</ele>
        <time>2013-04-25T10:41:46Z</time>
      </trkpt>
      <trkpt lat="42.850109" lon="0.675913">
        <ele>2047.3</ele>
        <time>2013-04-25T10:42:04Z</time>
      </trkpt>
      <trkpt lat="42.850011" lon="0.675947">
        <ele>2051.1</ele>
        <time>2013-04-25T10:42:30Z</time>
      </trkpt>
      <trkpt lat="42.849922" lon="0.675946">
        <ele>2053.5</ele>
        <time>2013-04-25T10:42:47Z</time>
      </trkpt>
      <trkpt lat="42.849854" lon="0.675927">
        <ele>2055.4</ele>
        <time>2013-04-25T10:43:21Z</time>
      </trkpt>
      <trkpt lat="42.849757" lon="0.675892">
        <ele>2058.3</ele>
        <time>2013-04-25T10:43:37Z</time>
      </trkpt>
      <trkpt lat="42.849673" lon="0.675874">
        <ele>2059.8</ele>
        <time>2013-04-25T10:43:51Z</time>
      </trkpt>
      <trkpt lat="42.849595" lon="0.675858">
        <ele>2061.7</ele>
        <time>2013-04-25T10:44:08Z</time>
      </trkpt>
      <trkpt lat="42.849509" lon="0.675823">
        <ele>2064.6</ele>
        <time>2013-04-25T10:44:29Z</time>
      </trkpt>
      <trkpt lat="42.849434" lon="0.675791">
        <ele>2067.9</ele>
        <time>2013-04-25T10:44:50Z</time>
      </trkpt>
      <trkpt lat="42.849359" lon="0.675757">
        <ele>2070.8</ele>
        <time>2013-04-25T10:45:12Z</time>
      </trkpt>
      <trkpt lat="42.849282" lon="0.675702">
        <ele>2072.7</ele>
        <time>2013-04-25T10:45:31Z</time>
      </trkpt>
      <trkpt lat="42.849199" lon="0.675703">
        <ele>2076.1</ele>
        <time>2013-04-25T10:45:52Z</time>
      </trkpt>
      <trkpt lat="42.849114" lon="0.675651">
        <ele>2079.5</ele>
        <time>2013-04-25T10:46:10Z</time>
      </trkpt>
      <trkpt lat="42.849052" lon="0.675667">
        <ele>2081.9</ele>
        <time>2013-04-25T10:46:26Z</time>
      </trkpt>
      <trkpt lat="42.848980" lon="0.675635">
        <ele>2084.3</ele>
        <time>2013-04-25T10:46:45Z</time>
      </trkpt>
      <trkpt lat="42.848893" lon="0.675602">
        <ele>2087.6</ele>
        <time>2013-04-25T10:47:11Z</time>
      </trkpt>
      <trkpt lat="42.848822" lon="0.675642">
        <ele>2091.0</ele>
        <time>2013-04-25T10:47:31Z</time>
      </trkpt>
      <trkpt lat="42.848742" lon="0.675647">
        <ele>2094.4</ele>
        <time>2013-04-25T10:47:50Z</time>
      </trkpt>
      <trkpt lat="42.848667" lon="0.675617">
        <ele>2096.3</ele>
        <time>2013-04-25T10:48:11Z</time>
      </trkpt>
      <trkpt lat="42.848592" lon="0.675595">
        <ele>2098.2</ele>
        <time>2013-04-25T10:48:27Z</time>
      </trkpt>
      <trkpt lat="42.848511" lon="0.675620">
        <ele>2101.1</ele>
        <time>2013-04-25T10:48:48Z</time>
      </trkpt>
      <trkpt lat="42.848421" lon="0.675633">
        <ele>2103.5</ele>
        <time>2013-04-25T10:49:07Z</time>
      </trkpt>
      <trkpt lat="42.848345" lon="0.675624">
        <ele>2106.4</ele>
        <time>2013-04-25T10:49:25Z</time>
      </trkpt>
      <trkpt lat="42.848264" lon="0.675555">
        <ele>2109.8</ele>
        <time>2013-04-25T10:49:47Z</time>
      </trkpt>
      <trkpt lat="42.848192" lon="0.675508">
        <ele>2112.1</ele>
        <time>2013-04-25T10:50:06Z</time>
      </trkpt>
      <trkpt lat="42.848126" lon="0.675478">
        <ele>2116.5</ele>
        <time>2013-04-25T10:50:30Z</time>
      </trkpt>
      <trkpt lat="42.848052" lon="0.675512">
        <ele>2119.4</ele>
        <time>2013-04-25T10:50:51Z</time>
      </trkpt>
      <trkpt lat="42.847988" lon="0.675449">
        <ele>2122.2</ele>
        <time>2013-04-25T10:51:07Z</time>
      </trkpt>
      <trkpt lat="42.847921" lon="0.675489">
        <ele>2125.6</ele>
        <time>2013-04-25T10:51:28Z</time>
      </trkpt>
      <trkpt lat="42.847859" lon="0.675408">
        <ele>2129.0</ele>
        <time>2013-04-25T10:51:51Z</time>
      </trkpt>
      <trkpt lat="42.847784" lon="0.675470">
        <ele>2132.3</ele>
        <time>2013-04-25T10:52:15Z</time>
      </trkpt>
      <trkpt lat="42.847714" lon="0.675359">
        <ele>2136.2</ele>
        <time>2013-04-25T10:52:40Z</time>
      </trkpt>
      <trkpt lat="42.847650" lon="0.675362">
        <ele>2139.6</ele>
        <time>2013-04-25T10:52:59Z</time>
      </trkpt>
      <trkpt lat="42.847589" lon="0.675403">
        <ele>2143.4</ele>
        <time>2013-04-25T10:53:18Z</time>
      </trkpt>
      <trkpt lat="42.847514" lon="0.675379">
        <ele>2147.7</ele>
        <time>2013-04-25T10:53:43Z</time>
      </trkpt>
      <trkpt lat="42.847446" lon="0.675306">
        <ele>2149.6</ele>
        <time>2013-04-25T10:53:59Z</time>
      </trkpt>
      <trkpt lat="42.847375" lon="0.675361">
        <ele>2154.0</ele>
        <time>2013-04-25T10:54:24Z</time>
      </trkpt>
      <trkpt lat="42.847325" lon="0.675238">
        <ele>2156.4</ele>
        <time>2013-04-25T10:54:41Z</time>
      </trkpt>
      <trkpt lat="42.847259" lon="0.675301">
        <ele>2159.3</ele>
        <time>2013-04-25T10:55:05Z</time>
      </trkpt>
      <trkpt lat="42.847194" lon="0.675213">
        <ele>2163.6</ele>
        <time>2013-04-25T10:55:31Z</time>
      </trkpt>
      <trkpt lat="42.847133" lon="0.675132">
        <ele>2165.5</ele>
        <time>2013-04-25T10:56:00Z</time>
      </trkpt>
      <trkpt lat="42.847055" lon="0.675164">
        <ele>2167.9</ele>
        <time>2013-04-25T10:56:20Z</time>
      </trkpt>
      <trkpt lat="42.846973" lon="0.675120">
        <ele>2169.4</ele>
        <time>2013-04-25T10:56:39Z</time>
      </trkpt>
      <trkpt lat="42.846895" lon="0.675158">
        <ele>2172.2</ele>
        <time>2013-04-25T10:56:56Z</time>
      </trkpt>
      <trkpt lat="42.846822" lon="0.675153">
        <ele>2176.1</ele>
        <time>2013-04-25T10:57:15Z</time>
      </trkpt>
      <trkpt lat="42.846748" lon="0.675156">
        <ele>2178.0</ele>
        <time>2013-04-25T10:57:34Z</time>
      </trkpt>
      <trkpt lat="42.846658" lon="0.675156">
        <ele>2180.9</ele>
        <time>2013-04-25T10:57:52Z</time>
      </trkpt>
      <trkpt lat="42.846570" lon="0.675160">
        <ele>2183.8</ele>
        <time>2013-04-25T10:58:10Z</time>
      </trkpt>
      <trkpt lat="42.846478" lon="0.675176">
        <ele>2185.7</ele>
        <time>2013-04-25T10:58:28Z</time>
      </trkpt>
      <trkpt lat="42.846394" lon="0.675193">
        <ele>2189.1</ele>
        <time>2013-04-25T10:58:47Z</time>
      </trkpt>
      <trkpt lat="42.846309" lon="0.675214">
        <ele>2190.5</ele>
        <time>2013-04-25T10:59:05Z</time>
      </trkpt>
      <trkpt lat="42.846231" lon="0.675215">
        <ele>2192.9</ele>
        <time>2013-04-25T10:59:22Z</time>
      </trkpt>
      <trkpt lat="42.846135" lon="0.675209">
        <ele>2194.4</ele>
        <time>2013-04-25T10:59:38Z</time>
      </trkpt>
      <trkpt lat="42.846094" lon="0.675191">
        <ele>2195.8</ele>
        <time>2013-04-25T11:00:17Z</time>
      </trkpt>
      <trkpt lat="42.846175" lon="0.675230">
        <ele>2195.8</ele>
        <time>2013-04-25T11:08:27Z</time>
        <name>Pic de Bacanere</name>
      </trkpt>
      <trkpt lat="42.846244" lon="0.675285">
        <ele>2193.4</ele>
        <time>2013-04-25T11:08:36Z</time>
      </trkpt>
      <trkpt lat="42.846337" lon="0.675309">
        <ele>2191.0</ele>
        <time>2013-04-25T11:08:46Z</time>
      </trkpt>
      <trkpt lat="42.846435" lon="0.675335">
        <ele>2188.1</ele>
        <time>2013-04-25T11:08:56Z</time>
      </trkpt>
      <trkpt lat="42.846530" lon="0.675350">
        <ele>2186.7</ele>
        <time>2013-04-25T11:09:05Z</time>
      </trkpt>
      <trkpt lat="42.846622" lon="0.675397">
        <ele>2184.2</ele>
        <time>2013-04-25T11:09:14Z</time>
      </trkpt>
      <trkpt lat="42.846710" lon="0.675445">
        <ele>2180.9</ele>
        <time>2013-04-25T11:09:21Z</time>
      </trkpt>
      <trkpt lat="42.846786" lon="0.675515">
        <ele>2178.5</ele>
        <time>2013-04-25T11:09:28Z</time>
      </trkpt>
      <trkpt lat="42.846853" lon="0.675595">
        <ele>2174.6</ele>
        <time>2013-04-25T11:09:35Z</time>
      </trkpt>
      <trkpt lat="42.846927" lon="0.675676">
        <ele>2171.8</ele>
        <time>2013-04-25T11:09:42Z</time>
      </trkpt>
      <trkpt lat="42.847005" lon="0.675753">
        <ele>2167.9</ele>
        <time>2013-04-25T11:09:50Z</time>
      </trkpt>
      <trkpt lat="42.847070" lon="0.675856">
        <ele>2163.6</ele>
        <time>2013-04-25T11:09:58Z</time>
      </trkpt>
      <trkpt lat="42.847134" lon="0.675959">
        <ele>2160.7</ele>
        <time>2013-04-25T11:10:05Z</time>
      </trkpt>
      <trkpt lat="42.847196" lon="0.676068">
        <ele>2157.3</ele>
        <time>2013-04-25T11:10:12Z</time>
      </trkpt>
      <trkpt lat="42.847252" lon="0.676170">
        <ele>2153.5</ele>
        <time>2013-04-25T11:10:19Z</time>
      </trkpt>
      <trkpt lat="42.847314" lon="0.676276">
        <ele>2149.2</ele>
        <time>2013-04-25T11:10:27Z</time>
      </trkpt>
      <trkpt lat="42.847361" lon="0.676390">
        <ele>2146.3</ele>
        <time>2013-04-25T11:10:34Z</time>
      </trkpt>
      <trkpt lat="42.847416" lon="0.676484">
        <ele>2141.9</ele>
        <time>2013-04-25T11:10:41Z</time>
      </trkpt>
      <trkpt lat="42.847474" lon="0.676583">
        <ele>2139.6</ele>
        <time>2013-04-25T11:10:48Z</time>
      </trkpt>
      <trkpt lat="42.847540" lon="0.676693">
        <ele>2135.7</ele>
        <time>2013-04-25T11:10:56Z</time>
      </trkpt>
      <trkpt lat="42.847608" lon="0.676791">
        <ele>2133.3</ele>
        <time>2013-04-25T11:11:03Z</time>
      </trkpt>
      <trkpt lat="42.847665" lon="0.676900">
        <ele>2130.9</ele>
        <time>2013-04-25T11:11:10Z</time>
      </trkpt>
      <trkpt lat="42.847710" lon="0.677007">
        <ele>2127.5</ele>
        <time>2013-04-25T11:11:17Z</time>
      </trkpt>
      <trkpt lat="42.847751" lon="0.677114">
        <ele>2125.6</ele>
        <time>2013-04-25T11:11:24Z</time>
      </trkpt>
      <trkpt lat="42.847801" lon="0.677239">
        <ele>2124.2</ele>
        <time>2013-04-25T11:11:32Z</time>
      </trkpt>
      <trkpt lat="42.847845" lon="0.677362">
        <ele>2121.8</ele>
        <time>2013-04-25T11:11:39Z</time>
      </trkpt>
      <trkpt lat="42.847888" lon="0.677484">
        <ele>2120.3</ele>
        <time>2013-04-25T11:11:47Z</time>
      </trkpt>
      <trkpt lat="42.847938" lon="0.677588">
        <ele>2120.8</ele>
        <time>2013-04-25T11:11:56Z</time>
      </trkpt>
      <trkpt lat="42.847975" lon="0.677677">
        <ele>2120.3</ele>
        <time>2013-04-25T11:12:14Z</time>
      </trkpt>
      <trkpt lat="42.848051" lon="0.677760">
        <ele>2118.9</ele>
        <time>2013-04-25T11:12:23Z</time>
      </trkpt>
      <trkpt lat="42.848133" lon="0.677799">
        <ele>2116.0</ele>
        <time>2013-04-25T11:12:32Z</time>
      </trkpt>
      <trkpt lat="42.848240" lon="0.677791">
        <ele>2114.1</ele>
        <time>2013-04-25T11:12:43Z</time>
      </trkpt>
      <trkpt lat="42.848330" lon="0.677869">
        <ele>2112.6</ele>
        <time>2013-04-25T11:12:53Z</time>
      </trkpt>
      <trkpt lat="42.848385" lon="0.677982">
        <ele>2110.7</ele>
        <time>2013-04-25T11:13:01Z</time>
      </trkpt>
      <trkpt lat="42.848432" lon="0.678092">
        <ele>2110.2</ele>
        <time>2013-04-25T11:13:09Z</time>
      </trkpt>
      <trkpt lat="42.848517" lon="0.678080">
        <ele>2107.8</ele>
        <time>2013-04-25T11:13:18Z</time>
      </trkpt>
      <trkpt lat="42.848607" lon="0.678054">
        <ele>2105.4</ele>
        <time>2013-04-25T11:13:26Z</time>
      </trkpt>
      <trkpt lat="42.848703" lon="0.678033">
        <ele>2104.5</ele>
        <time>2013-04-25T11:13:35Z</time>
      </trkpt>
      <trkpt lat="42.848792" lon="0.678046">
        <ele>2104.0</ele>
        <time>2013-04-25T11:13:48Z</time>
      </trkpt>
      <trkpt lat="42.848890" lon="0.678006">
        <ele>2104.0</ele>
        <time>2013-04-25T11:13:59Z</time>
      </trkpt>
      <trkpt lat="42.848991" lon="0.677972">
        <ele>2104.5</ele>
        <time>2013-04-25T11:14:11Z</time>
      </trkpt>
      <trkpt lat="42.849090" lon="0.677974">
        <ele>2104.5</ele>
        <time>2013-04-25T11:14:21Z</time>
      </trkpt>
      <trkpt lat="42.849187" lon="0.677955">
        <ele>2104.5</ele>
        <time>2013-04-25T11:14:31Z</time>
      </trkpt>
      <trkpt lat="42.849283" lon="0.677930">
        <ele>2105.4</ele>
        <time>2013-04-25T11:14:41Z</time>
      </trkpt>
      <trkpt lat="42.849377" lon="0.677933">
        <ele>2105.9</ele>
        <time>2013-04-25T11:14:49Z</time>
      </trkpt>
      <trkpt lat="42.849479" lon="0.677956">
        <ele>2109.3</ele>
        <time>2013-04-25T11:15:00Z</time>
      </trkpt>
      <trkpt lat="42.849575" lon="0.677987">
        <ele>2109.8</ele>
        <time>2013-04-25T11:15:10Z</time>
      </trkpt>
      <trkpt lat="42.849669" lon="0.678043">
        <ele>2110.2</ele>
        <time>2013-04-25T11:15:19Z</time>
      </trkpt>
      <trkpt lat="42.849732" lon="0.678084">
        <ele>2110.7</ele>
        <time>2013-04-25T11:15:30Z</time>
      </trkpt>
      <trkpt lat="42.849827" lon="0.678112">
        <ele>2111.7</ele>
        <time>2013-04-25T11:16:04Z</time>
      </trkpt>
      <trkpt lat="42.849920" lon="0.678117">
        <ele>2112.6</ele>
        <time>2013-04-25T11:16:12Z</time>
      </trkpt>
      <trkpt lat="42.850017" lon="0.678122">
        <ele>2111.7</ele>
        <time>2013-04-25T11:16:20Z</time>
      </trkpt>
      <trkpt lat="42.850122" lon="0.678103">
        <ele>2111.2</ele>
        <time>2013-04-25T11:16:49Z</time>
      </trkpt>
      <trkpt lat="42.850221" lon="0.678090">
        <ele>2111.2</ele>
        <time>2013-04-25T11:17:00Z</time>
      </trkpt>
      <trkpt lat="42.850308" lon="0.678138">
        <ele>2111.7</ele>
        <time>2013-04-25T11:17:09Z</time>
      </trkpt>
      <trkpt lat="42.850401" lon="0.678162">
        <ele>2113.1</ele>
        <time>2013-04-25T11:17:18Z</time>
      </trkpt>
      <trkpt lat="42.850519" lon="0.678099">
        <ele>2103.8</ele>
        <time>2013-04-25T11:17:28Z</time>
      </trkpt>
      <trkpt lat="42.850637" lon="0.677940">
        <ele>2099.9</ele>
        <time>2013-04-25T12:29:45Z</time>
      </trkpt>
      <trkpt lat="42.850776" lon="0.677573">
        <ele>2092.4</ele>
        <time>2013-04-25T12:29:56Z</time>
      </trkpt>
      <trkpt lat="42.850906" lon="0.677138">
        <ele>2078.1</ele>
        <time>2013-04-25T12:30:07Z</time>
      </trkpt>
      <trkpt lat="42.850996" lon="0.676636">
        <ele>2060.6</ele>
        <time>2013-04-25T12:31:12Z</time>
      </trkpt>
      <trkpt lat="42.851125" lon="0.676187">
        <ele>2048.6</ele>
        <time>2013-04-25T12:31:31Z</time>
      </trkpt>
      <trkpt lat="42.851161" lon="0.675775">
        <ele>2036.5</ele>
        <time>2013-04-25T12:31:43Z</time>
      </trkpt>
      <trkpt lat="42.851207" lon="0.675453">
        <ele>2027.5</ele>
        <time>2013-04-25T12:31:53Z</time>
      </trkpt>
      <trkpt lat="42.851310" lon="0.675132">
        <ele>2019.0</ele>
        <time>2013-04-25T12:33:19Z</time>
      </trkpt>
      <trkpt lat="42.851335" lon="0.674999">
        <ele>2015.8</ele>
        <time>2013-04-25T12:33:28Z</time>
      </trkpt>
      <trkpt lat="42.851346" lon="0.674873">
        <ele>2012.6</ele>
        <time>2013-04-25T12:33:36Z</time>
      </trkpt>
      <trkpt lat="42.851376" lon="0.674719">
        <ele>2008.8</ele>
        <time>2013-04-25T12:33:44Z</time>
      </trkpt>
      <trkpt lat="42.851392" lon="0.674593">
        <ele>2005.7</ele>
        <time>2013-04-25T12:33:52Z</time>
      </trkpt>
      <trkpt lat="42.851448" lon="0.674481">
        <ele>2003.3</ele>
        <time>2013-04-25T12:34:00Z</time>
      </trkpt>
      <trkpt lat="42.851484" lon="0.674355">
        <ele>2000.3</ele>
        <time>2013-04-25T12:34:08Z</time>
      </trkpt>
      <trkpt lat="42.851519" lon="0.674162">
        <ele>1996.3</ele>
        <time>2013-04-25T12:34:17Z</time>
      </trkpt>
      <trkpt lat="42.851524" lon="0.674025">
        <ele>1993.4</ele>
        <time>2013-04-25T12:34:26Z</time>
      </trkpt>
      <trkpt lat="42.851520" lon="0.673903">
        <ele>1991.0</ele>
        <time>2013-04-25T12:34:34Z</time>
      </trkpt>
      <trkpt lat="42.851527" lon="0.673782">
        <ele>1987.2</ele>
        <time>2013-04-25T12:34:42Z</time>
      </trkpt>
      <trkpt lat="42.851559" lon="0.673652">
        <ele>1983.3</ele>
        <time>2013-04-25T12:34:50Z</time>
      </trkpt>
      <trkpt lat="42.851579" lon="0.673516">
        <ele>1980.0</ele>
        <time>2013-04-25T12:34:58Z</time>
      </trkpt>
      <trkpt lat="42.851574" lon="0.673399">
        <ele>1976.1</ele>
        <time>2013-04-25T12:35:06Z</time>
      </trkpt>
      <trkpt lat="42.851587" lon="0.673285">
        <ele>1973.2</ele>
        <time>2013-04-25T12:35:14Z</time>
      </trkpt>
      <trkpt lat="42.851574" lon="0.673162">
        <ele>1970.4</ele>
        <time>2013-04-25T12:35:23Z</time>
      </trkpt>
      <trkpt lat="42.851610" lon="0.673020">
        <ele>1967.5</ele>
        <time>2013-04-25T12:35:32Z</time>
      </trkpt>
      <trkpt lat="42.851683" lon="0.672892">
        <ele>1965.1</ele>
        <time>2013-04-25T12:35:41Z</time>
      </trkpt>
      <trkpt lat="42.851723" lon="0.672760">
        <ele>1964.6</ele>
        <time>2013-04-25T12:35:51Z</time>
      </trkpt>
      <trkpt lat="42.851736" lon="0.672635">
        <ele>1964.1</ele>
        <time>2013-04-25T12:36:02Z</time>
      </trkpt>
      <trkpt lat="42.851771" lon="0.672510">
        <ele>1963.6</ele>
        <time>2013-04-25T12:36:14Z</time>
      </trkpt>
      <trkpt lat="42.851755" lon="0.672393">
        <ele>1962.7</ele>
        <time>2013-04-25T12:36:27Z</time>
      </trkpt>
      <trkpt lat="42.851719" lon="0.672256">
        <ele>1962.2</ele>
        <time>2013-04-25T12:36:38Z</time>
      </trkpt>
      <trkpt lat="42.851658" lon="0.672149">
        <ele>1961.7</ele>
        <time>2013-04-25T12:36:48Z</time>
      </trkpt>
      <trkpt lat="42.851607" lon="0.672046">
        <ele>1959.3</ele>
        <time>2013-04-25T12:36:59Z</time>
      </trkpt>
      <trkpt lat="42.851601" lon="0.671911">
        <ele>1957.9</ele>
        <time>2013-04-25T12:37:11Z</time>
      </trkpt>
      <trkpt lat="42.851607" lon="0.671774">
        <ele>1956.9</ele>
        <time>2013-04-25T12:37:22Z</time>
      </trkpt>
      <trkpt lat="42.851603" lon="0.671647">
        <ele>1955.5</ele>
        <time>2013-04-25T12:37:32Z</time>
      </trkpt>
      <trkpt lat="42.851568" lon="0.671515">
        <ele>1954.0</ele>
        <time>2013-04-25T12:37:42Z</time>
      </trkpt>
      <trkpt lat="42.851538" lon="0.671392">
        <ele>1952.6</ele>
        <time>2013-04-25T12:37:51Z</time>
      </trkpt>
      <trkpt lat="42.851540" lon="0.671262">
        <ele>1950.2</ele>
        <time>2013-04-25T12:38:00Z</time>
      </trkpt>
      <trkpt lat="42.851542" lon="0.671119">
        <ele>1948.7</ele>
        <time>2013-04-25T12:38:09Z</time>
      </trkpt>
      <trkpt lat="42.851525" lon="0.670989">
        <ele>1948.7</ele>
        <time>2013-04-25T12:38:19Z</time>
      </trkpt>
      <trkpt lat="42.851487" lon="0.670865">
        <ele>1948.2</ele>
        <time>2013-04-25T12:38:28Z</time>
      </trkpt>
      <trkpt lat="42.851469" lon="0.670737">
        <ele>1947.3</ele>
        <time>2013-04-25T12:38:37Z</time>
      </trkpt>
      <trkpt lat="42.851427" lon="0.670606">
        <ele>1947.3</ele>
        <time>2013-04-25T12:38:47Z</time>
      </trkpt>
      <trkpt lat="42.851397" lon="0.670485">
        <ele>1946.3</ele>
        <time>2013-04-25T12:38:57Z</time>
      </trkpt>
      <trkpt lat="42.851389" lon="0.670349">
        <ele>1945.4</ele>
        <time>2013-04-25T12:39:07Z</time>
      </trkpt>
      <trkpt lat="42.851392" lon="0.670223">
        <ele>1944.9</ele>
        <time>2013-04-25T12:39:16Z</time>
      </trkpt>
      <trkpt lat="42.851404" lon="0.670096">
        <ele>1943.4</ele>
        <time>2013-04-25T12:39:25Z</time>
      </trkpt>
      <trkpt lat="42.851398" lon="0.669962">
        <ele>1942.5</ele>
        <time>2013-04-25T12:39:33Z</time>
      </trkpt>
      <trkpt lat="42.851418" lon="0.669832">
        <ele>1940.6</ele>
        <time>2013-04-25T12:39:42Z</time>
      </trkpt>
      <trkpt lat="42.851440" lon="0.669688">
        <ele>1938.6</ele>
        <time>2013-04-25T12:39:51Z</time>
      </trkpt>
      <trkpt lat="42.851458" lon="0.669552">
        <ele>1936.7</ele>
        <time>2013-04-25T12:40:00Z</time>
      </trkpt>
      <trkpt lat="42.851463" lon="0.669425">
        <ele>1933.8</ele>
        <time>2013-04-25T12:40:08Z</time>
      </trkpt>
      <trkpt lat="42.851464" lon="0.669290">
        <ele>1931.4</ele>
        <time>2013-04-25T12:40:18Z</time>
      </trkpt>
      <trkpt lat="42.851497" lon="0.669158">
        <ele>1929.5</ele>
        <time>2013-04-25T12:40:27Z</time>
      </trkpt>
      <trkpt lat="42.851525" lon="0.669028">
        <ele>1927.1</ele>
        <time>2013-04-25T12:40:36Z</time>
      </trkpt>
      <trkpt lat="42.851565" lon="0.668893">
        <ele>1924.2</ele>
        <time>2013-04-25T12:40:45Z</time>
      </trkpt>
      <trkpt lat="42.851609" lon="0.668768">
        <ele>1922.3</ele>
        <time>2013-04-25T12:40:54Z</time>
      </trkpt>
      <trkpt lat="42.851662" lon="0.668651">
        <ele>1920.4</ele>
        <time>2013-04-25T12:41:02Z</time>
      </trkpt>
      <trkpt lat="42.851751" lon="0.668496">
        <ele>1917.5</ele>
        <time>2013-04-25T12:41:10Z</time>
      </trkpt>
      <trkpt lat="42.851764" lon="0.668376">
        <ele>1915.1</ele>
        <time>2013-04-25T12:41:18Z</time>
      </trkpt>
      <trkpt lat="42.851809" lon="0.668263">
        <ele>1912.7</ele>
        <time>2013-04-25T12:41:25Z</time>
      </trkpt>
      <trkpt lat="42.851861" lon="0.668141">
        <ele>1909.8</ele>
        <time>2013-04-25T12:41:34Z</time>
      </trkpt>
      <trkpt lat="42.851858" lon="0.668015">
        <ele>1906.4</ele>
        <time>2013-04-25T12:41:43Z</time>
      </trkpt>
      <trkpt lat="42.851902" lon="0.667878">
        <ele>1903.6</ele>
        <time>2013-04-25T12:41:51Z</time>
      </trkpt>
      <trkpt lat="42.851927" lon="0.667758">
        <ele>1901.1</ele>
        <time>2013-04-25T12:41:59Z</time>
      </trkpt>
      <trkpt lat="42.851946" lon="0.667623">
        <ele>1899.2</ele>
        <time>2013-04-25T12:42:07Z</time>
      </trkpt>
      <trkpt lat="42.851954" lon="0.667497">
        <ele>1897.3</ele>
        <time>2013-04-25T12:42:15Z</time>
      </trkpt>
      <trkpt lat="42.851943" lon="0.667358">
        <ele>1895.9</ele>
        <time>2013-04-25T12:42:25Z</time>
      </trkpt>
      <trkpt lat="42.851944" lon="0.667223">
        <ele>1894.9</ele>
        <time>2013-04-25T12:42:34Z</time>
      </trkpt>
      <trkpt lat="42.851929" lon="0.667091">
        <ele>1893.9</ele>
        <time>2013-04-25T12:42:43Z</time>
      </trkpt>
      <trkpt lat="42.851925" lon="0.666973">
        <ele>1895.9</ele>
        <time>2013-04-25T12:42:59Z</time>
      </trkpt>
      <trkpt lat="42.851927" lon="0.666830">
        <ele>1896.3</ele>
        <time>2013-04-25T12:43:12Z</time>
      </trkpt>
      <trkpt lat="42.851889" lon="0.666707">
        <ele>1894.4</ele>
        <time>2013-04-25T12:43:23Z</time>
      </trkpt>
      <trkpt lat="42.851852" lon="0.666599">
        <ele>1893.9</ele>
        <time>2013-04-25T12:43:39Z</time>
      </trkpt>
      <trkpt lat="42.851812" lon="0.666475">
        <ele>1893.0</ele>
        <time>2013-04-25T12:43:49Z</time>
      </trkpt>
      <trkpt lat="42.851771" lon="0.666334">
        <ele>1891.5</ele>
        <time>2013-04-25T12:43:59Z</time>
      </trkpt>
      <trkpt lat="42.851726" lon="0.666226">
        <ele>1891.1</ele>
        <time>2013-04-25T12:44:07Z</time>
      </trkpt>
      <trkpt lat="42.851682" lon="0.666125">
        <ele>1889.1</ele>
        <time>2013-04-25T12:44:15Z</time>
      </trkpt>
      <trkpt lat="42.851662" lon="0.666006">
        <ele>1886.7</ele>
        <time>2013-04-25T12:44:23Z</time>
      </trkpt>
      <trkpt lat="42.851616" lon="0.665878">
        <ele>1884.3</ele>
        <time>2013-04-25T12:44:32Z</time>
      </trkpt>
      <trkpt lat="42.851593" lon="0.665735">
        <ele>1883.8</ele>
        <time>2013-04-25T12:44:41Z</time>
      </trkpt>
      <trkpt lat="42.851560" lon="0.665615">
        <ele>1883.8</ele>
        <time>2013-04-25T12:44:48Z</time>
      </trkpt>
      <trkpt lat="42.851548" lon="0.665500">
        <ele>1882.4</ele>
        <time>2013-04-25T12:44:56Z</time>
      </trkpt>
      <trkpt lat="42.851541" lon="0.665392">
        <ele>1879.5</ele>
        <time>2013-04-25T12:45:04Z</time>
      </trkpt>
      <trkpt lat="42.851525" lon="0.665274">
        <ele>1876.2</ele>
        <time>2013-04-25T12:45:11Z</time>
      </trkpt>
      <trkpt lat="42.851465" lon="0.665153">
        <ele>1875.7</ele>
        <time>2013-04-25T12:45:20Z</time>
      </trkpt>
      <trkpt lat="42.851402" lon="0.665069">
        <ele>1877.6</ele>
        <time>2013-04-25T12:45:31Z</time>
      </trkpt>
      <trkpt lat="42.851390" lon="0.664954">
        <ele>1880.0</ele>
        <time>2013-04-25T12:45:50Z</time>
      </trkpt>
      <trkpt lat="42.851371" lon="0.664830">
        <ele>1881.0</ele>
        <time>2013-04-25T12:46:04Z</time>
      </trkpt>
      <trkpt lat="42.851363" lon="0.664699">
        <ele>1882.4</ele>
        <time>2013-04-25T12:46:18Z</time>
      </trkpt>
      <trkpt lat="42.851369" lon="0.664543">
        <ele>1883.4</ele>
        <time>2013-04-25T12:46:31Z</time>
      </trkpt>
      <trkpt lat="42.851379" lon="0.664404">
        <ele>1882.4</ele>
        <time>2013-04-25T12:46:42Z</time>
      </trkpt>
      <trkpt lat="42.851375" lon="0.664286">
        <ele>1881.0</ele>
        <time>2013-04-25T12:46:52Z</time>
      </trkpt>
      <trkpt lat="42.851382" lon="0.664164">
        <ele>1878.6</ele>
        <time>2013-04-25T12:47:01Z</time>
      </trkpt>
      <trkpt lat="42.851386" lon="0.664046">
        <ele>1876.2</ele>
        <time>2013-04-25T12:47:09Z</time>
      </trkpt>
      <trkpt lat="42.851387" lon="0.663917">
        <ele>1873.3</ele>
        <time>2013-04-25T12:47:17Z</time>
      </trkpt>
      <trkpt lat="42.851366" lon="0.663799">
        <ele>1870.4</ele>
        <time>2013-04-25T12:47:25Z</time>
      </trkpt>
      <trkpt lat="42.851341" lon="0.663696">
        <ele>1868.9</ele>
        <time>2013-04-25T12:47:34Z</time>
      </trkpt>
      <trkpt lat="42.851369" lon="0.663584">
        <ele>1866.1</ele>
        <time>2013-04-25T12:47:43Z</time>
      </trkpt>
      <trkpt lat="42.851382" lon="0.663450">
        <ele>1863.2</ele>
        <time>2013-04-25T12:47:52Z</time>
      </trkpt>
      <trkpt lat="42.851380" lon="0.663325">
        <ele>1860.8</ele>
        <time>2013-04-25T12:48:00Z</time>
      </trkpt>
      <trkpt lat="42.851385" lon="0.663209">
        <ele>1858.4</ele>
        <time>2013-04-25T12:48:08Z</time>
      </trkpt>
      <trkpt lat="42.851381" lon="0.663099">
        <ele>1856.0</ele>
        <time>2013-04-25T12:48:16Z</time>
      </trkpt>
      <trkpt lat="42.851382" lon="0.662970">
        <ele>1853.6</ele>
        <time>2013-04-25T12:48:25Z</time>
      </trkpt>
      <trkpt lat="42.851376" lon="0.662859">
        <ele>1851.2</ele>
        <time>2013-04-25T12:48:33Z</time>
      </trkpt>
      <trkpt lat="42.851345" lon="0.662746">
        <ele>1848.8</ele>
        <time>2013-04-25T12:48:41Z</time>
      </trkpt>
      <trkpt lat="42.851334" lon="0.662629">
        <ele>1846.3</ele>
        <time>2013-04-25T12:48:49Z</time>
      </trkpt>
      <trkpt lat="42.851337" lon="0.662498">
        <ele>1843.0</ele>
        <time>2013-04-25T12:48:58Z</time>
      </trkpt>
      <trkpt lat="42.851352" lon="0.662369">
        <ele>1840.1</ele>
        <time>2013-04-25T12:49:07Z</time>
      </trkpt>
      <trkpt lat="42.851358" lon="0.662244">
        <ele>1837.2</ele>
        <time>2013-04-25T12:49:16Z</time>
      </trkpt>
      <trkpt lat="42.851338" lon="0.662130">
        <ele>1835.3</ele>
        <time>2013-04-25T12:49:25Z</time>
      </trkpt>
      <trkpt lat="42.851325" lon="0.661993">
        <ele>1832.4</ele>
        <time>2013-04-25T12:49:34Z</time>
      </trkpt>
      <trkpt lat="42.851301" lon="0.661856">
        <ele>1829.1</ele>
        <time>2013-04-25T12:49:44Z</time>
      </trkpt>
      <trkpt lat="42.851266" lon="0.661733">
        <ele>1827.1</ele>
        <time>2013-04-25T12:49:53Z</time>
      </trkpt>
      <trkpt lat="42.851240" lon="0.661616">
        <ele>1823.3</ele>
        <time>2013-04-25T12:50:03Z</time>
      </trkpt>
      <trkpt lat="42.851218" lon="0.661488">
        <ele>1820.4</ele>
        <time>2013-04-25T12:50:11Z</time>
      </trkpt>
      <trkpt lat="42.851188" lon="0.661386">
        <ele>1817.0</ele>
        <time>2013-04-25T12:50:20Z</time>
      </trkpt>
      <trkpt lat="42.851167" lon="0.661266">
        <ele>1814.6</ele>
        <time>2013-04-25T12:50:29Z</time>
      </trkpt>
      <trkpt lat="42.851121" lon="0.661141">
        <ele>1810.8</ele>
        <time>2013-04-25T12:50:39Z</time>
      </trkpt>
      <trkpt lat="42.851125" lon="0.661003">
        <ele>1807.4</ele>
        <time>2013-04-25T12:50:48Z</time>
      </trkpt>
      <trkpt lat="42.851165" lon="0.660881">
        <ele>1803.1</ele>
        <time>2013-04-25T12:50:58Z</time>
      </trkpt>
      <trkpt lat="42.851206" lon="0.660762">
        <ele>1799.7</ele>
        <time>2013-04-25T12:51:07Z</time>
      </trkpt>
      <trkpt lat="42.851234" lon="0.660630">
        <ele>1795.9</ele>
        <time>2013-04-25T12:51:16Z</time>
      </trkpt>
      <trkpt lat="42.851264" lon="0.660509">
        <ele>1792.0</ele>
        <time>2013-04-25T12:51:24Z</time>
      </trkpt>
      <trkpt lat="42.851248" lon="0.660372">
        <ele>1788.2</ele>
        <time>2013-04-25T12:52:09Z</time>
      </trkpt>
      <trkpt lat="42.851272" lon="0.660249">
        <ele>1784.8</ele>
        <time>2013-04-25T12:52:17Z</time>
      </trkpt>
      <trkpt lat="42.851291" lon="0.660112">
        <ele>1780.5</ele>
        <time>2013-04-25T12:52:25Z</time>
      </trkpt>
      <trkpt lat="42.851325" lon="0.659980">
        <ele>1776.2</ele>
        <time>2013-04-25T12:52:33Z</time>
      </trkpt>
      <trkpt lat="42.851402" lon="0.659902">
        <ele>1772.3</ele>
        <time>2013-04-25T12:52:40Z</time>
      </trkpt>
      <trkpt lat="42.851448" lon="0.659792">
        <ele>1767.5</ele>
        <time>2013-04-25T12:52:48Z</time>
      </trkpt>
      <trkpt lat="42.851437" lon="0.659669">
        <ele>1763.7</ele>
        <time>2013-04-25T12:52:56Z</time>
      </trkpt>
      <trkpt lat="42.851399" lon="0.659537">
        <ele>1760.8</ele>
        <time>2013-04-25T12:53:05Z</time>
      </trkpt>
      <trkpt lat="42.851406" lon="0.659403">
        <ele>1758.4</ele>
        <time>2013-04-25T12:53:12Z</time>
      </trkpt>
      <trkpt lat="42.851430" lon="0.659274">
        <ele>1754.5</ele>
        <time>2013-04-25T12:53:19Z</time>
      </trkpt>
      <trkpt lat="42.851427" lon="0.659144">
        <ele>1750.7</ele>
        <time>2013-04-25T12:53:27Z</time>
      </trkpt>
      <trkpt lat="42.851471" lon="0.659020">
        <ele>1745.9</ele>
        <time>2013-04-25T12:53:35Z</time>
      </trkpt>
      <trkpt lat="42.851515" lon="0.658908">
        <ele>1741.6</ele>
        <time>2013-04-25T12:53:42Z</time>
      </trkpt>
      <trkpt lat="42.851584" lon="0.658815">
        <ele>1736.3</ele>
        <time>2013-04-25T12:53:49Z</time>
      </trkpt>
      <trkpt lat="42.851620" lon="0.658711">
        <ele>1731.5</ele>
        <time>2013-04-25T12:53:56Z</time>
      </trkpt>
      <trkpt lat="42.851675" lon="0.658609">
        <ele>1727.2</ele>
        <time>2013-04-25T12:54:03Z</time>
      </trkpt>
      <trkpt lat="42.851721" lon="0.658502">
        <ele>1722.3</ele>
        <time>2013-04-25T12:54:09Z</time>
      </trkpt>
      <trkpt lat="42.851773" lon="0.658397">
        <ele>1717.1</ele>
        <time>2013-04-25T12:54:16Z</time>
      </trkpt>
      <trkpt lat="42.851818" lon="0.658293">
        <ele>1712.7</ele>
        <time>2013-04-25T12:54:23Z</time>
      </trkpt>
      <trkpt lat="42.851843" lon="0.658175">
        <ele>1708.4</ele>
        <time>2013-04-25T12:54:30Z</time>
      </trkpt>
      <trkpt lat="42.851903" lon="0.658068">
        <ele>1704.1</ele>
        <time>2013-04-25T12:54:38Z</time>
      </trkpt>
      <trkpt lat="42.851926" lon="0.657957">
        <ele>1699.8</ele>
        <time>2013-04-25T12:54:46Z</time>
      </trkpt>
      <trkpt lat="42.851968" lon="0.657831">
        <ele>1694.9</ele>
        <time>2013-04-25T12:54:54Z</time>
      </trkpt>
      <trkpt lat="42.852028" lon="0.657711">
        <ele>1691.1</ele>
        <time>2013-04-25T12:55:02Z</time>
      </trkpt>
      <trkpt lat="42.852093" lon="0.657605">
        <ele>1686.8</ele>
        <time>2013-04-25T12:55:09Z</time>
      </trkpt>
      <trkpt lat="42.852152" lon="0.657508">
        <ele>1682.4</ele>
        <time>2013-04-25T12:55:16Z</time>
      </trkpt>
      <trkpt lat="42.852201" lon="0.657391">
        <ele>1678.6</ele>
        <time>2013-04-25T12:55:23Z</time>
      </trkpt>
      <trkpt lat="42.852247" lon="0.657262">
        <ele>1674.3</ele>
        <time>2013-04-25T12:55:30Z</time>
      </trkpt>
      <trkpt lat="42.852295" lon="0.657150">
        <ele>1669.9</ele>
        <time>2013-04-25T12:55:38Z</time>
      </trkpt>
      <trkpt lat="42.852316" lon="0.657040">
        <ele>1667.1</ele>
        <time>2013-04-25T12:55:45Z</time>
      </trkpt>
      <trkpt lat="42.852307" lon="0.656913">
        <ele>1665.1</ele>
        <time>2013-04-25T12:55:53Z</time>
      </trkpt>
      <trkpt lat="42.852312" lon="0.656770">
        <ele>1661.3</ele>
        <time>2013-04-25T12:56:01Z</time>
      </trkpt>
      <trkpt lat="42.852335" lon="0.656646">
        <ele>1659.4</ele>
        <time>2013-04-25T12:56:09Z</time>
      </trkpt>
      <trkpt lat="42.852330" lon="0.656505">
        <ele>1657.9</ele>
        <time>2013-04-25T12:56:17Z</time>
      </trkpt>
      <trkpt lat="42.852333" lon="0.656384">
        <ele>1655.5</ele>
        <time>2013-04-25T12:56:25Z</time>
      </trkpt>
      <trkpt lat="42.852361" lon="0.656255">
        <ele>1652.2</ele>
        <time>2013-04-25T12:56:38Z</time>
      </trkpt>
      <trkpt lat="42.852381" lon="0.656245">
        <ele>1652.2</ele>
        <time>2013-04-25T12:57:56Z</time>
      </trkpt>
      <trkpt lat="42.852369" lon="0.656104">
        <ele>1651.2</ele>
        <time>2013-04-25T12:59:10Z</time>
      </trkpt>
      <trkpt lat="42.852373" lon="0.656020">
        <ele>1648.8</ele>
        <time>2013-04-25T12:59:19Z</time>
      </trkpt>
      <trkpt lat="42.852361" lon="0.655906">
        <ele>1645.9</ele>
        <time>2013-04-25T12:59:28Z</time>
      </trkpt>
      <trkpt lat="42.852378" lon="0.655772">
        <ele>1644.0</ele>
        <time>2013-04-25T12:59:37Z</time>
      </trkpt>
      <trkpt lat="42.852394" lon="0.655653">
        <ele>1641.6</ele>
        <time>2013-04-25T12:59:45Z</time>
      </trkpt>
      <trkpt lat="42.852410" lon="0.655521">
        <ele>1639.7</ele>
        <time>2013-04-25T12:59:54Z</time>
      </trkpt>
      <trkpt lat="42.852442" lon="0.655400">
        <ele>1636.8</ele>
        <time>2013-04-25T13:00:02Z</time>
      </trkpt>
      <trkpt lat="42.852475" lon="0.655278">
        <ele>1633.9</ele>
        <time>2013-04-25T13:00:10Z</time>
      </trkpt>
      <trkpt lat="42.852486" lon="0.655136">
        <ele>1632.9</ele>
        <time>2013-04-25T13:00:17Z</time>
      </trkpt>
      <trkpt lat="42.852498" lon="0.654997">
        <ele>1631.0</ele>
        <time>2013-04-25T13:00:24Z</time>
      </trkpt>
      <trkpt lat="42.852569" lon="0.654895">
        <ele>1628.6</ele>
        <time>2013-04-25T13:00:31Z</time>
      </trkpt>
      <trkpt lat="42.852607" lon="0.654769">
        <ele>1627.2</ele>
        <time>2013-04-25T13:00:38Z</time>
      </trkpt>
      <trkpt lat="42.852650" lon="0.654647">
        <ele>1625.7</ele>
        <time>2013-04-25T13:00:45Z</time>
      </trkpt>
      <trkpt lat="42.852687" lon="0.654519">
        <ele>1623.8</ele>
        <time>2013-04-25T13:00:52Z</time>
      </trkpt>
      <trkpt lat="42.852732" lon="0.654397">
        <ele>1622.8</ele>
        <time>2013-04-25T13:00:58Z</time>
      </trkpt>
      <trkpt lat="42.852777" lon="0.654267">
        <ele>1621.4</ele>
        <time>2013-04-25T13:01:05Z</time>
      </trkpt>
      <trkpt lat="42.852815" lon="0.654134">
        <ele>1621.4</ele>
        <time>2013-04-25T13:01:12Z</time>
      </trkpt>
      <trkpt lat="42.852844" lon="0.654012">
        <ele>1620.9</ele>
        <time>2013-04-25T13:01:19Z</time>
      </trkpt>
      <trkpt lat="42.852910" lon="0.653936">
        <ele>1620.9</ele>
        <time>2013-04-25T13:01:27Z</time>
      </trkpt>
      <trkpt lat="42.852947" lon="0.653808">
        <ele>1621.4</ele>
        <time>2013-04-25T13:01:34Z</time>
      </trkpt>
      <trkpt lat="42.852989" lon="0.653687">
        <ele>1620.4</ele>
        <time>2013-04-25T13:01:41Z</time>
      </trkpt>
      <trkpt lat="42.853030" lon="0.653571">
        <ele>1619.5</ele>
        <time>2013-04-25T13:01:49Z</time>
      </trkpt>
      <trkpt lat="42.853087" lon="0.653470">
        <ele>1618.0</ele>
        <time>2013-04-25T13:01:56Z</time>
      </trkpt>
      <trkpt lat="42.853160" lon="0.653372">
        <ele>1618.0</ele>
        <time>2013-04-25T13:02:04Z</time>
      </trkpt>
      <trkpt lat="42.853213" lon="0.653262">
        <ele>1615.6</ele>
        <time>2013-04-25T13:02:12Z</time>
      </trkpt>
      <trkpt lat="42.853282" lon="0.653161">
        <ele>1611.8</ele>
        <time>2013-04-25T13:02:20Z</time>
      </trkpt>
      <trkpt lat="42.853358" lon="0.653071">
        <ele>1611.3</ele>
        <time>2013-04-25T13:02:28Z</time>
      </trkpt>
      <trkpt lat="42.853434" lon="0.652979">
        <ele>1610.3</ele>
        <time>2013-04-25T13:02:35Z</time>
      </trkpt>
      <trkpt lat="42.853525" lon="0.652928">
        <ele>1608.9</ele>
        <time>2013-04-25T13:02:43Z</time>
      </trkpt>
      <trkpt lat="42.853600" lon="0.652868">
        <ele>1607.0</ele>
        <time>2013-04-25T13:02:51Z</time>
      </trkpt>
      <trkpt lat="42.853671" lon="0.652793">
        <ele>1604.1</ele>
        <time>2013-04-25T13:02:58Z</time>
      </trkpt>
      <trkpt lat="42.853740" lon="0.652701">
        <ele>1602.7</ele>
        <time>2013-04-25T13:03:06Z</time>
      </trkpt>
      <trkpt lat="42.853825" lon="0.652633">
        <ele>1600.2</ele>
        <time>2013-04-25T13:03:14Z</time>
      </trkpt>
      <trkpt lat="42.853893" lon="0.652545">
        <ele>1597.4</ele>
        <time>2013-04-25T13:03:22Z</time>
      </trkpt>
      <trkpt lat="42.853977" lon="0.652461">
        <ele>1594.0</ele>
        <time>2013-04-25T13:03:30Z</time>
      </trkpt>
      <trkpt lat="42.854022" lon="0.652359">
        <ele>1591.1</ele>
        <time>2013-04-25T13:03:37Z</time>
      </trkpt>
      <trkpt lat="42.854106" lon="0.652275">
        <ele>1589.2</ele>
        <time>2013-04-25T13:03:45Z</time>
      </trkpt>
      <trkpt lat="42.854185" lon="0.652203">
        <ele>1585.8</ele>
        <time>2013-04-25T13:03:53Z</time>
      </trkpt>
      <trkpt lat="42.854260" lon="0.652115">
        <ele>1583.4</ele>
        <time>2013-04-25T13:04:01Z</time>
      </trkpt>
      <trkpt lat="42.854346" lon="0.652040">
        <ele>1581.0</ele>
        <time>2013-04-25T13:04:09Z</time>
      </trkpt>
      <trkpt lat="42.854434" lon="0.651975">
        <ele>1577.7</ele>
        <time>2013-04-25T13:04:17Z</time>
      </trkpt>
      <trkpt lat="42.854504" lon="0.651900">
        <ele>1575.7</ele>
        <time>2013-04-25T13:04:24Z</time>
      </trkpt>
      <trkpt lat="42.854571" lon="0.651818">
        <ele>1573.3</ele>
        <time>2013-04-25T13:04:31Z</time>
      </trkpt>
      <trkpt lat="42.854670" lon="0.651792">
        <ele>1571.4</ele>
        <time>2013-04-25T13:04:39Z</time>
      </trkpt>
      <trkpt lat="42.854752" lon="0.651744">
        <ele>1568.1</ele>
        <time>2013-04-25T13:04:47Z</time>
      </trkpt>
      <trkpt lat="42.854810" lon="0.651671">
        <ele>1565.6</ele>
        <time>2013-04-25T13:04:56Z</time>
      </trkpt>
      <trkpt lat="42.854890" lon="0.651572">
        <ele>1562.8</ele>
        <time>2013-04-25T13:05:06Z</time>
      </trkpt>
      <trkpt lat="42.854971" lon="0.651499">
        <ele>1558.4</ele>
        <time>2013-04-25T13:05:15Z</time>
      </trkpt>
      <trkpt lat="42.855029" lon="0.651403">
        <ele>1555.1</ele>
        <time>2013-04-25T13:05:24Z</time>
      </trkpt>
      <trkpt lat="42.855127" lon="0.651365">
        <ele>1553.6</ele>
        <time>2013-04-25T13:05:32Z</time>
      </trkpt>
      <trkpt lat="42.855200" lon="0.651290">
        <ele>1550.7</ele>
        <time>2013-04-25T13:05:40Z</time>
      </trkpt>
      <trkpt lat="42.855298" lon="0.651272">
        <ele>1547.4</ele>
        <time>2013-04-25T13:05:48Z</time>
      </trkpt>
      <trkpt lat="42.855393" lon="0.651239">
        <ele>1545.0</ele>
        <time>2013-04-25T13:05:56Z</time>
      </trkpt>
      <trkpt lat="42.855477" lon="0.651170">
        <ele>1541.6</ele>
        <time>2013-04-25T13:06:05Z</time>
      </trkpt>
      <trkpt lat="42.855566" lon="0.651116">
        <ele>1539.2</ele>
        <time>2013-04-25T13:06:13Z</time>
      </trkpt>
      <trkpt lat="42.855660" lon="0.651058">
        <ele>1536.3</ele>
        <time>2013-04-25T13:06:21Z</time>
      </trkpt>
      <trkpt lat="42.855740" lon="0.651009">
        <ele>1533.0</ele>
        <time>2013-04-25T13:06:29Z</time>
      </trkpt>
      <trkpt lat="42.855815" lon="0.650939">
        <ele>1531.5</ele>
        <time>2013-04-25T13:06:37Z</time>
      </trkpt>
      <trkpt lat="42.855904" lon="0.650890">
        <ele>1529.1</ele>
        <time>2013-04-25T13:06:46Z</time>
      </trkpt>
      <trkpt lat="42.855961" lon="0.650789">
        <ele>1526.2</ele>
        <time>2013-04-25T13:06:56Z</time>
      </trkpt>
      <trkpt lat="42.856041" lon="0.650796">
        <ele>1518.5</ele>
        <time>2013-04-25T13:29:13Z</time>
      </trkpt>
      <trkpt lat="42.856147" lon="0.650779">
        <ele>1519.5</ele>
        <time>2013-04-25T13:29:26Z</time>
      </trkpt>
      <trkpt lat="42.856245" lon="0.650774">
        <ele>1519.5</ele>
        <time>2013-04-25T13:29:36Z</time>
      </trkpt>
      <trkpt lat="42.856328" lon="0.650727">
        <ele>1519.5</ele>
        <time>2013-04-25T13:29:46Z</time>
      </trkpt>
      <trkpt lat="42.856427" lon="0.650699">
        <ele>1520.0</ele>
        <time>2013-04-25T13:29:56Z</time>
      </trkpt>
      <trkpt lat="42.856508" lon="0.650653">
        <ele>1521.4</ele>
        <time>2013-04-25T13:30:07Z</time>
      </trkpt>
      <trkpt lat="42.856564" lon="0.650583">
        <ele>1522.9</ele>
        <time>2013-04-25T13:30:21Z</time>
      </trkpt>
      <trkpt lat="42.856593" lon="0.650511">
        <ele>1525.3</ele>
        <time>2013-04-25T13:30:37Z</time>
      </trkpt>
      <trkpt lat="42.856570" lon="0.650377">
        <ele>1529.1</ele>
        <time>2013-04-25T13:30:54Z</time>
      </trkpt>
      <trkpt lat="42.856547" lon="0.650235">
        <ele>1531.0</ele>
        <time>2013-04-25T13:31:06Z</time>
      </trkpt>
      <trkpt lat="42.856545" lon="0.650112">
        <ele>1534.4</ele>
        <time>2013-04-25T13:31:21Z</time>
      </trkpt>
      <trkpt lat="42.856605" lon="0.650021">
        <ele>1538.2</ele>
        <time>2013-04-25T13:31:36Z</time>
      </trkpt>
      <trkpt lat="42.856651" lon="0.649990">
        <ele>1536.8</ele>
        <time>2013-04-25T13:31:51Z</time>
      </trkpt>
      <trkpt lat="42.856724" lon="0.649919">
        <ele>1534.9</ele>
        <time>2013-04-25T13:32:27Z</time>
      </trkpt>
      <trkpt lat="42.856791" lon="0.649835">
        <ele>1531.0</ele>
        <time>2013-04-25T13:32:38Z</time>
      </trkpt>
      <trkpt lat="42.856798" lon="0.649704">
        <ele>1529.6</ele>
        <time>2013-04-25T13:32:47Z</time>
      </trkpt>
      <trkpt lat="42.856817" lon="0.649567">
        <ele>1528.2</ele>
        <time>2013-04-25T13:32:56Z</time>
      </trkpt>
      <trkpt lat="42.856817" lon="0.649432">
        <ele>1527.7</ele>
        <time>2013-04-25T13:33:06Z</time>
      </trkpt>
      <trkpt lat="42.856838" lon="0.649262">
        <ele>1526.2</ele>
        <time>2013-04-25T13:33:17Z</time>
      </trkpt>
      <trkpt lat="42.856840" lon="0.649095">
        <ele>1525.3</ele>
        <time>2013-04-25T13:33:31Z</time>
      </trkpt>
      <trkpt lat="42.856840" lon="0.648913">
        <ele>1524.3</ele>
        <time>2013-04-25T13:33:47Z</time>
      </trkpt>
      <trkpt lat="42.856855" lon="0.648721">
        <ele>1523.3</ele>
        <time>2013-04-25T13:34:02Z</time>
      </trkpt>
      <trkpt lat="42.856851" lon="0.648504">
        <ele>1520.9</ele>
        <time>2013-04-25T13:34:18Z</time>
      </trkpt>
      <trkpt lat="42.856858" lon="0.648304">
        <ele>1519.0</ele>
        <time>2013-04-25T13:34:31Z</time>
      </trkpt>
      <trkpt lat="42.856884" lon="0.648130">
        <ele>1517.1</ele>
        <time>2013-04-25T13:34:42Z</time>
      </trkpt>
      <trkpt lat="42.856952" lon="0.647961">
        <ele>1514.7</ele>
        <time>2013-04-25T13:34:54Z</time>
      </trkpt>
      <trkpt lat="42.856953" lon="0.647745">
        <ele>1511.3</ele>
        <time>2013-04-25T13:35:08Z</time>
      </trkpt>
      <trkpt lat="42.856986" lon="0.647579">
        <ele>1508.4</ele>
        <time>2013-04-25T13:35:21Z</time>
      </trkpt>
      <trkpt lat="42.856995" lon="0.647365">
        <ele>1507.0</ele>
        <time>2013-04-25T13:35:32Z</time>
      </trkpt>
      <trkpt lat="42.857031" lon="0.647156">
        <ele>1505.6</ele>
        <time>2013-04-25T13:35:43Z</time>
      </trkpt>
      <trkpt lat="42.857050" lon="0.646980">
        <ele>1504.6</ele>
        <time>2013-04-25T13:35:55Z</time>
      </trkpt>
      <trkpt lat="42.857082" lon="0.646804">
        <ele>1503.6</ele>
        <time>2013-04-25T13:36:05Z</time>
      </trkpt>
      <trkpt lat="42.857072" lon="0.646668">
        <ele>1503.2</ele>
        <time>2013-04-25T13:36:14Z</time>
      </trkpt>
      <trkpt lat="42.857060" lon="0.646529">
        <ele>1501.7</ele>
        <time>2013-04-25T13:36:24Z</time>
      </trkpt>
      <trkpt lat="42.857102" lon="0.646378">
        <ele>1500.8</ele>
        <time>2013-04-25T13:36:35Z</time>
      </trkpt>
      <trkpt lat="42.857152" lon="0.646178">
        <ele>1498.8</ele>
        <time>2013-04-25T13:36:46Z</time>
      </trkpt>
      <trkpt lat="42.857165" lon="0.645979">
        <ele>1497.9</ele>
        <time>2013-04-25T13:36:55Z</time>
      </trkpt>
      <trkpt lat="42.857206" lon="0.645818">
        <ele>1496.4</ele>
        <time>2013-04-25T13:37:04Z</time>
      </trkpt>
      <trkpt lat="42.857247" lon="0.645657">
        <ele>1494.0</ele>
        <time>2013-04-25T13:37:14Z</time>
      </trkpt>
      <trkpt lat="42.857264" lon="0.645474">
        <ele>1491.1</ele>
        <time>2013-04-25T13:37:25Z</time>
      </trkpt>
      <trkpt lat="42.857263" lon="0.645294">
        <ele>1489.7</ele>
        <time>2013-04-25T13:37:36Z</time>
      </trkpt>
      <trkpt lat="42.857294" lon="0.645135">
        <ele>1487.3</ele>
        <time>2013-04-25T13:37:48Z</time>
      </trkpt>
      <trkpt lat="42.857266" lon="0.644921">
        <ele>1484.4</ele>
        <time>2013-04-25T13:38:00Z</time>
      </trkpt>
      <trkpt lat="42.857281" lon="0.644728">
        <ele>1482.5</ele>
        <time>2013-04-25T13:38:09Z</time>
      </trkpt>
      <trkpt lat="42.857253" lon="0.644554">
        <ele>1480.6</ele>
        <time>2013-04-25T13:38:18Z</time>
      </trkpt>
      <trkpt lat="42.857269" lon="0.644366">
        <ele>1478.2</ele>
        <time>2013-04-25T13:38:28Z</time>
      </trkpt>
      <trkpt lat="42.857238" lon="0.644189">
        <ele>1475.8</ele>
        <time>2013-04-25T13:38:39Z</time>
      </trkpt>
      <trkpt lat="42.857214" lon="0.644007">
        <ele>1470.9</ele>
        <time>2013-04-25T13:38:53Z</time>
      </trkpt>
      <trkpt lat="42.857192" lon="0.643772">
        <ele>1469.0</ele>
        <time>2013-04-25T13:39:05Z</time>
      </trkpt>
      <trkpt lat="42.857127" lon="0.643529">
        <ele>1466.6</ele>
        <time>2013-04-25T13:39:15Z</time>
      </trkpt>
      <trkpt lat="42.857122" lon="0.643370">
        <ele>1465.2</ele>
        <time>2013-04-25T13:39:24Z</time>
      </trkpt>
      <trkpt lat="42.857061" lon="0.643155">
        <ele>1463.7</ele>
        <time>2013-04-25T13:39:33Z</time>
      </trkpt>
      <trkpt lat="42.857096" lon="0.642970">
        <ele>1461.8</ele>
        <time>2013-04-25T13:39:44Z</time>
      </trkpt>
      <trkpt lat="42.857066" lon="0.642777">
        <ele>1458.9</ele>
        <time>2013-04-25T13:39:53Z</time>
      </trkpt>
      <trkpt lat="42.857048" lon="0.642611">
        <ele>1456.1</ele>
        <time>2013-04-25T13:40:03Z</time>
      </trkpt>
      <trkpt lat="42.857035" lon="0.642449">
        <ele>1453.7</ele>
        <time>2013-04-25T13:40:12Z</time>
      </trkpt>
      <trkpt lat="42.857028" lon="0.642287">
        <ele>1450.8</ele>
        <time>2013-04-25T13:40:22Z</time>
      </trkpt>
      <trkpt lat="42.857028" lon="0.642034">
        <ele>1447.9</ele>
        <time>2013-04-25T13:40:33Z</time>
      </trkpt>
      <trkpt lat="42.857014" lon="0.641885">
        <ele>1445.5</ele>
        <time>2013-04-25T13:40:43Z</time>
      </trkpt>
      <trkpt lat="42.857020" lon="0.641720">
        <ele>1442.6</ele>
        <time>2013-04-25T13:40:53Z</time>
      </trkpt>
      <trkpt lat="42.856981" lon="0.641517">
        <ele>1440.7</ele>
        <time>2013-04-25T13:41:03Z</time>
      </trkpt>
      <trkpt lat="42.856914" lon="0.641333">
        <ele>1438.3</ele>
        <time>2013-04-25T13:41:13Z</time>
      </trkpt>
      <trkpt lat="42.856884" lon="0.641197">
        <ele>1436.3</ele>
        <time>2013-04-25T13:41:21Z</time>
      </trkpt>
      <trkpt lat="42.856863" lon="0.641047">
        <ele>1431.5</ele>
        <time>2013-04-25T13:41:34Z</time>
      </trkpt>
      <trkpt lat="42.856784" lon="0.640812">
        <ele>1431.1</ele>
        <time>2013-04-25T13:41:50Z</time>
      </trkpt>
      <trkpt lat="42.856654" lon="0.640507">
        <ele>1429.6</ele>
        <time>2013-04-25T13:42:23Z</time>
      </trkpt>
      <trkpt lat="42.856628" lon="0.640388">
        <ele>1429.1</ele>
        <time>2013-04-25T13:42:32Z</time>
      </trkpt>
      <trkpt lat="42.856614" lon="0.640237">
        <ele>1427.2</ele>
        <time>2013-04-25T13:42:43Z</time>
      </trkpt>
      <trkpt lat="42.856495" lon="0.640021">
        <ele>1425.8</ele>
        <time>2013-04-25T13:42:53Z</time>
      </trkpt>
      <trkpt lat="42.856387" lon="0.639811">
        <ele>1422.9</ele>
        <time>2013-04-25T13:43:10Z</time>
      </trkpt>
      <trkpt lat="42.856310" lon="0.639650">
        <ele>1421.9</ele>
        <time>2013-04-25T13:43:20Z</time>
      </trkpt>
      <trkpt lat="42.856264" lon="0.639477">
        <ele>1420.5</ele>
        <time>2013-04-25T13:43:29Z</time>
      </trkpt>
      <trkpt lat="42.856232" lon="0.639305">
        <ele>1419.0</ele>
        <time>2013-04-25T13:43:37Z</time>
      </trkpt>
      <trkpt lat="42.856219" lon="0.639146">
        <ele>1417.6</ele>
        <time>2013-04-25T13:43:45Z</time>
      </trkpt>
      <trkpt lat="42.856179" lon="0.638988">
        <ele>1413.8</ele>
        <time>2013-04-25T13:43:57Z</time>
      </trkpt>
      <trkpt lat="42.856188" lon="0.638839">
        <ele>1410.4</ele>
        <time>2013-04-25T13:44:06Z</time>
      </trkpt>
      <trkpt lat="42.856191" lon="0.638717">
        <ele>1407.5</ele>
        <time>2013-04-25T13:44:15Z</time>
      </trkpt>
      <trkpt lat="42.856196" lon="0.638581">
        <ele>1403.7</ele>
        <time>2013-04-25T13:44:25Z</time>
      </trkpt>
      <trkpt lat="42.856201" lon="0.638442">
        <ele>1400.3</ele>
        <time>2013-04-25T13:44:34Z</time>
      </trkpt>
      <trkpt lat="42.856226" lon="0.638307">
        <ele>1397.4</ele>
        <time>2013-04-25T13:44:42Z</time>
      </trkpt>
      <trkpt lat="42.856209" lon="0.638181">
        <ele>1394.5</ele>
        <time>2013-04-25T13:44:50Z</time>
      </trkpt>
      <trkpt lat="42.856201" lon="0.638054">
        <ele>1391.7</ele>
        <time>2013-04-25T13:44:57Z</time>
      </trkpt>
      <trkpt lat="42.856215" lon="0.637911">
        <ele>1389.2</ele>
        <time>2013-04-25T13:45:05Z</time>
      </trkpt>
      <trkpt lat="42.856226" lon="0.637782">
        <ele>1385.9</ele>
        <time>2013-04-25T13:45:14Z</time>
      </trkpt>
      <trkpt lat="42.856237" lon="0.637651">
        <ele>1383.0</ele>
        <time>2013-04-25T13:45:23Z</time>
      </trkpt>
      <trkpt lat="42.856241" lon="0.637512">
        <ele>1379.2</ele>
        <time>2013-04-25T13:45:32Z</time>
      </trkpt>
      <trkpt lat="42.856292" lon="0.637381">
        <ele>1376.8</ele>
        <time>2013-04-25T13:45:40Z</time>
      </trkpt>
      <trkpt lat="42.856310" lon="0.637259">
        <ele>1373.9</ele>
        <time>2013-04-25T13:45:48Z</time>
      </trkpt>
      <trkpt lat="42.856312" lon="0.637126">
        <ele>1371.5</ele>
        <time>2013-04-25T13:45:56Z</time>
      </trkpt>
      <trkpt lat="42.856299" lon="0.636982">
        <ele>1368.6</ele>
        <time>2013-04-25T13:46:04Z</time>
      </trkpt>
      <trkpt lat="42.856329" lon="0.636863">
        <ele>1366.7</ele>
        <time>2013-04-25T13:46:12Z</time>
      </trkpt>
      <trkpt lat="42.856371" lon="0.636735">
        <ele>1364.2</ele>
        <time>2013-04-25T13:46:21Z</time>
      </trkpt>
      <trkpt lat="42.856409" lon="0.636616">
        <ele>1361.8</ele>
        <time>2013-04-25T13:46:47Z</time>
      </trkpt>
      <trkpt lat="42.856449" lon="0.636500">
        <ele>1359.9</ele>
        <time>2013-04-25T13:46:54Z</time>
      </trkpt>
      <trkpt lat="42.856505" lon="0.636395">
        <ele>1358.5</ele>
        <time>2013-04-25T13:47:01Z</time>
      </trkpt>
      <trkpt lat="42.856567" lon="0.636262">
        <ele>1356.1</ele>
        <time>2013-04-25T13:47:11Z</time>
      </trkpt>
      <trkpt lat="42.856619" lon="0.636137">
        <ele>1354.2</ele>
        <time>2013-04-25T13:47:19Z</time>
      </trkpt>
      <trkpt lat="42.856689" lon="0.636022">
        <ele>1352.2</ele>
        <time>2013-04-25T13:47:27Z</time>
      </trkpt>
      <trkpt lat="42.856722" lon="0.635921">
        <ele>1350.8</ele>
        <time>2013-04-25T13:47:32Z</time>
      </trkpt>
      <trkpt lat="42.856802" lon="0.635815">
        <ele>1347.9</ele>
        <time>2013-04-25T13:47:41Z</time>
      </trkpt>
      <trkpt lat="42.856861" lon="0.635712">
        <ele>1346.9</ele>
        <time>2013-04-25T13:47:46Z</time>
      </trkpt>
      <trkpt lat="42.856903" lon="0.635637">
        <ele>1345.0</ele>
        <time>2013-04-25T13:47:53Z</time>
      </trkpt>
      <trkpt lat="42.856971" lon="0.635551">
        <ele>1341.7</ele>
        <time>2013-04-25T13:48:03Z</time>
      </trkpt>
      <trkpt lat="42.857034" lon="0.635447">
        <ele>1338.8</ele>
        <time>2013-04-25T13:48:11Z</time>
      </trkpt>
      <trkpt lat="42.857106" lon="0.635341">
        <ele>1335.4</ele>
        <time>2013-04-25T13:48:20Z</time>
      </trkpt>
      <trkpt lat="42.857129" lon="0.635204">
        <ele>1333.0</ele>
        <time>2013-04-25T13:48:29Z</time>
      </trkpt>
      <trkpt lat="42.857156" lon="0.635082">
        <ele>1330.6</ele>
        <time>2013-04-25T13:48:36Z</time>
      </trkpt>
      <trkpt lat="42.857193" lon="0.634945">
        <ele>1327.7</ele>
        <time>2013-04-25T13:48:44Z</time>
      </trkpt>
      <trkpt lat="42.857284" lon="0.634877">
        <ele>1324.3</ele>
        <time>2013-04-25T13:48:53Z</time>
      </trkpt>
      <trkpt lat="42.857323" lon="0.634742">
        <ele>1321.5</ele>
        <time>2013-04-25T13:49:01Z</time>
      </trkpt>
      <trkpt lat="42.857368" lon="0.634622">
        <ele>1319.6</ele>
        <time>2013-04-25T13:49:09Z</time>
      </trkpt>
      <trkpt lat="42.857404" lon="0.634602">
        <ele>1316.2</ele>
        <time>2013-04-25T13:52:54Z</time>
      </trkpt>
      <trkpt lat="42.857387" lon="0.634458">
        <ele>1312.3</ele>
        <time>2013-04-25T13:53:03Z</time>
      </trkpt>
      <trkpt lat="42.857484" lon="0.634385">
        <ele>1309.9</ele>
        <time>2013-04-25T13:53:12Z</time>
      </trkpt>
      <trkpt lat="42.857502" lon="0.634279">
        <ele>1309.0</ele>
        <time>2013-04-25T13:53:22Z</time>
      </trkpt>
      <trkpt lat="42.857513" lon="0.634147">
        <ele>1308.0</ele>
        <time>2013-04-25T13:53:36Z</time>
      </trkpt>
      <trkpt lat="42.857519" lon="0.634036">
        <ele>1304.7</ele>
        <time>2013-04-25T13:53:43Z</time>
      </trkpt>
      <trkpt lat="42.857516" lon="0.633947">
        <ele>1301.8</ele>
        <time>2013-04-25T13:53:51Z</time>
      </trkpt>
      <trkpt lat="42.857553" lon="0.633839">
        <ele>1299.8</ele>
        <time>2013-04-25T13:53:56Z</time>
      </trkpt>
      <trkpt lat="42.857536" lon="0.633698">
        <ele>1297.0</ele>
        <time>2013-04-25T13:54:05Z</time>
      </trkpt>
      <trkpt lat="42.857501" lon="0.633585">
        <ele>1295.5</ele>
        <time>2013-04-25T13:54:12Z</time>
      </trkpt>
      <trkpt lat="42.857433" lon="0.633453">
        <ele>1293.1</ele>
        <time>2013-04-25T13:54:20Z</time>
      </trkpt>
      <trkpt lat="42.857394" lon="0.633381">
        <ele>1290.2</ele>
        <time>2013-04-25T13:54:28Z</time>
      </trkpt>
      <trkpt lat="42.857371" lon="0.633237">
        <ele>1288.8</ele>
        <time>2013-04-25T13:54:34Z</time>
      </trkpt>
      <trkpt lat="42.857323" lon="0.633144">
        <ele>1285.9</ele>
        <time>2013-04-25T13:54:43Z</time>
      </trkpt>
      <trkpt lat="42.857296" lon="0.633005">
        <ele>1283.0</ele>
        <time>2013-04-25T13:54:49Z</time>
      </trkpt>
      <trkpt lat="42.857254" lon="0.632874">
        <ele>1280.6</ele>
        <time>2013-04-25T13:54:58Z</time>
      </trkpt>
      <trkpt lat="42.857214" lon="0.632763">
        <ele>1278.2</ele>
        <time>2013-04-25T13:55:04Z</time>
      </trkpt>
      <trkpt lat="42.857197" lon="0.632646">
        <ele>1275.3</ele>
        <time>2013-04-25T13:55:13Z</time>
      </trkpt>
      <trkpt lat="42.857178" lon="0.632522">
        <ele>1272.9</ele>
        <time>2013-04-25T13:55:21Z</time>
      </trkpt>
      <trkpt lat="42.857175" lon="0.632365">
        <ele>1268.6</ele>
        <time>2013-04-25T13:55:30Z</time>
      </trkpt>
      <trkpt lat="42.857165" lon="0.632243">
        <ele>1265.7</ele>
        <time>2013-04-25T13:55:39Z</time>
      </trkpt>
      <trkpt lat="42.857183" lon="0.632096">
        <ele>1262.3</ele>
        <time>2013-04-25T13:55:48Z</time>
      </trkpt>
      <trkpt lat="42.857187" lon="0.631976">
        <ele>1259.5</ele>
        <time>2013-04-25T13:55:55Z</time>
      </trkpt>
      <trkpt lat="42.857141" lon="0.631869">
        <ele>1257.5</ele>
        <time>2013-04-25T13:56:02Z</time>
      </trkpt>
      <trkpt lat="42.857160" lon="0.631725">
        <ele>1252.7</ele>
        <time>2013-04-25T13:56:14Z</time>
      </trkpt>
      <trkpt lat="42.857160" lon="0.631532">
        <ele>1250.3</ele>
        <time>2013-04-25T13:56:26Z</time>
      </trkpt>
      <trkpt lat="42.857177" lon="0.631379">
        <ele>1246.5</ele>
        <time>2013-04-25T13:56:34Z</time>
      </trkpt>
      <trkpt lat="42.857135" lon="0.631219">
        <ele>1242.2</ele>
        <time>2013-04-25T13:56:45Z</time>
      </trkpt>
      <trkpt lat="42.857130" lon="0.631041">
        <ele>1238.8</ele>
        <time>2013-04-25T13:56:53Z</time>
      </trkpt>
      <trkpt lat="42.857166" lon="0.630904">
        <ele>1237.8</ele>
        <time>2013-04-25T13:57:00Z</time>
      </trkpt>
      <trkpt lat="42.857256" lon="0.630851">
        <ele>1232.6</ele>
        <time>2013-04-25T13:57:10Z</time>
      </trkpt>
      <trkpt lat="42.857307" lon="0.630683">
        <ele>1228.7</ele>
        <time>2013-04-25T13:57:21Z</time>
      </trkpt>
      <trkpt lat="42.857332" lon="0.630489">
        <ele>1224.9</ele>
        <time>2013-04-25T13:57:33Z</time>
      </trkpt>
      <trkpt lat="42.857356" lon="0.630279">
        <ele>1220.5</ele>
        <time>2013-04-25T13:57:44Z</time>
      </trkpt>
      <trkpt lat="42.857378" lon="0.630084">
        <ele>1217.7</ele>
        <time>2013-04-25T13:57:53Z</time>
      </trkpt>
      <trkpt lat="42.857389" lon="0.629930">
        <ele>1214.3</ele>
        <time>2013-04-25T13:58:15Z</time>
      </trkpt>
      <trkpt lat="42.857398" lon="0.629745">
        <ele>1211.9</ele>
        <time>2013-04-25T13:58:26Z</time>
      </trkpt>
      <trkpt lat="42.857423" lon="0.629539">
        <ele>1208.5</ele>
        <time>2013-04-25T13:58:37Z</time>
      </trkpt>
      <trkpt lat="42.857438" lon="0.629302">
        <ele>1205.6</ele>
        <time>2013-04-25T13:58:48Z</time>
      </trkpt>
      <trkpt lat="42.857432" lon="0.629113">
        <ele>1203.7</ele>
        <time>2013-04-25T13:58:59Z</time>
      </trkpt>
      <trkpt lat="42.857414" lon="0.628908">
        <ele>1198.9</ele>
        <time>2013-04-25T13:59:10Z</time>
      </trkpt>
      <trkpt lat="42.857389" lon="0.628688">
        <ele>1195.5</ele>
        <time>2013-04-25T13:59:22Z</time>
      </trkpt>
      <trkpt lat="42.857521" lon="0.628648">
        <ele>1192.2</ele>
        <time>2013-04-25T13:59:32Z</time>
      </trkpt>
      <trkpt lat="42.857577" lon="0.628553">
        <ele>1189.3</ele>
        <time>2013-04-25T13:59:42Z</time>
      </trkpt>
      <trkpt lat="42.857565" lon="0.628365">
        <ele>1186.4</ele>
        <time>2013-04-25T13:59:51Z</time>
      </trkpt>
      <trkpt lat="42.857622" lon="0.628203">
        <ele>1182.1</ele>
        <time>2013-04-25T14:00:02Z</time>
      </trkpt>
      <trkpt lat="42.857713" lon="0.628090">
        <ele>1178.7</ele>
        <time>2013-04-25T14:00:10Z</time>
      </trkpt>
      <trkpt lat="42.857750" lon="0.627926">
        <ele>1174.4</ele>
        <time>2013-04-25T14:00:21Z</time>
      </trkpt>
      <trkpt lat="42.857861" lon="0.627840">
        <ele>1170.5</ele>
        <time>2013-04-25T14:00:33Z</time>
      </trkpt>
      <trkpt lat="42.857929" lon="0.627748">
        <ele>1167.7</ele>
        <time>2013-04-25T14:00:39Z</time>
      </trkpt>
      <trkpt lat="42.857920" lon="0.627595">
        <ele>1165.3</ele>
        <time>2013-04-25T14:00:46Z</time>
      </trkpt>
      <trkpt lat="42.857909" lon="0.627448">
        <ele>1162.4</ele>
        <time>2013-04-25T14:00:54Z</time>
      </trkpt>
      <trkpt lat="42.857865" lon="0.627321">
        <ele>1160.4</ele>
        <time>2013-04-25T14:01:01Z</time>
      </trkpt>
      <trkpt lat="42.857879" lon="0.627181">
        <ele>1157.6</ele>
        <time>2013-04-25T14:01:10Z</time>
      </trkpt>
      <trkpt lat="42.857987" lon="0.627128">
        <ele>1153.7</ele>
        <time>2013-04-25T14:01:20Z</time>
      </trkpt>
      <trkpt lat="42.858129" lon="0.627179">
        <ele>1149.4</ele>
        <time>2013-04-25T14:01:33Z</time>
      </trkpt>
      <trkpt lat="42.858339" lon="0.627191">
        <ele>1145.1</ele>
        <time>2013-04-25T14:01:48Z</time>
      </trkpt>
      <trkpt lat="42.858443" lon="0.627098">
        <ele>1141.7</ele>
        <time>2013-04-25T14:01:57Z</time>
      </trkpt>
      <trkpt lat="42.858541" lon="0.627006">
        <ele>1139.3</ele>
        <time>2013-04-25T14:02:05Z</time>
      </trkpt>
      <trkpt lat="42.858582" lon="0.626826">
        <ele>1137.9</ele>
        <time>2013-04-25T14:02:14Z</time>
      </trkpt>
      <trkpt lat="42.858637" lon="0.626665">
        <ele>1134.5</ele>
        <time>2013-04-25T14:02:23Z</time>
      </trkpt>
      <trkpt lat="42.858682" lon="0.626541">
        <ele>1133.5</ele>
        <time>2013-04-25T14:02:29Z</time>
      </trkpt>
      <trkpt lat="42.858685" lon="0.626395">
        <ele>1131.6</ele>
        <time>2013-04-25T14:02:37Z</time>
      </trkpt>
      <trkpt lat="42.858624" lon="0.626306">
        <ele>1130.2</ele>
        <time>2013-04-25T14:02:44Z</time>
      </trkpt>
      <trkpt lat="42.858535" lon="0.626320">
        <ele>1128.7</ele>
        <time>2013-04-25T14:02:51Z</time>
      </trkpt>
      <trkpt lat="42.858432" lon="0.626354">
        <ele>1127.3</ele>
        <time>2013-04-25T14:02:58Z</time>
      </trkpt>
      <trkpt lat="42.858329" lon="0.626323">
        <ele>1124.9</ele>
        <time>2013-04-25T14:03:06Z</time>
      </trkpt>
      <trkpt lat="42.858295" lon="0.626213">
        <ele>1122.5</ele>
        <time>2013-04-25T14:03:13Z</time>
      </trkpt>
      <trkpt lat="42.858351" lon="0.626069">
        <ele>1120.6</ele>
        <time>2013-04-25T14:03:21Z</time>
      </trkpt>
      <trkpt lat="42.858419" lon="0.625945">
        <ele>1118.2</ele>
        <time>2013-04-25T14:03:29Z</time>
      </trkpt>
      <trkpt lat="42.858445" lon="0.625813">
        <ele>1116.7</ele>
        <time>2013-04-25T14:03:37Z</time>
      </trkpt>
      <trkpt lat="42.858476" lon="0.625684">
        <ele>1114.3</ele>
        <time>2013-04-25T14:03:46Z</time>
      </trkpt>
      <trkpt lat="42.858413" lon="0.625562">
        <ele>1111.9</ele>
        <time>2013-04-25T14:03:54Z</time>
      </trkpt>
      <trkpt lat="42.858388" lon="0.625426">
        <ele>1109.5</ele>
        <time>2013-04-25T14:04:02Z</time>
      </trkpt>
      <trkpt lat="42.858396" lon="0.625307">
        <ele>1107.1</ele>
        <time>2013-04-25T14:04:10Z</time>
      </trkpt>
      <trkpt lat="42.858302" lon="0.625300">
        <ele>1105.2</ele>
        <time>2013-04-25T14:04:18Z</time>
      </trkpt>
      <trkpt lat="42.858240" lon="0.625226">
        <ele>1103.2</ele>
        <time>2013-04-25T14:04:26Z</time>
      </trkpt>
      <trkpt lat="42.858253" lon="0.625075">
        <ele>1100.8</ele>
        <time>2013-04-25T14:04:35Z</time>
      </trkpt>
      <trkpt lat="42.858267" lon="0.624938">
        <ele>1097.5</ele>
        <time>2013-04-25T14:04:43Z</time>
      </trkpt>
      <trkpt lat="42.858290" lon="0.624793">
        <ele>1096.0</ele>
        <time>2013-04-25T14:04:51Z</time>
      </trkpt>
      <trkpt lat="42.858274" lon="0.624649">
        <ele>1094.6</ele>
        <time>2013-04-25T14:04:59Z</time>
      </trkpt>
      <trkpt lat="42.858281" lon="0.624522">
        <ele>1091.2</ele>
        <time>2013-04-25T14:05:08Z</time>
      </trkpt>
      <trkpt lat="42.858272" lon="0.624384">
        <ele>1088.8</ele>
        <time>2013-04-25T14:05:17Z</time>
      </trkpt>
      <trkpt lat="42.858261" lon="0.624245">
        <ele>1085.5</ele>
        <time>2013-04-25T14:05:29Z</time>
      </trkpt>
      <trkpt lat="42.858213" lon="0.624136">
        <ele>1082.6</ele>
        <time>2013-04-25T14:05:39Z</time>
      </trkpt>
      <trkpt lat="42.858176" lon="0.624009">
        <ele>1078.3</ele>
        <time>2013-04-25T14:05:48Z</time>
      </trkpt>
      <trkpt lat="42.858156" lon="0.623940">
        <ele>1075.8</ele>
        <time>2013-04-25T14:05:57Z</time>
      </trkpt>
      <trkpt lat="42.858235" lon="0.623813">
        <ele>1073.4</ele>
        <time>2013-04-25T14:06:06Z</time>
      </trkpt>
      <trkpt lat="42.858311" lon="0.623716">
        <ele>1073.0</ele>
        <time>2013-04-25T14:06:13Z</time>
      </trkpt>
      <trkpt lat="42.858386" lon="0.623587">
        <ele>1072.0</ele>
        <time>2013-04-25T14:06:24Z</time>
      </trkpt>
      <trkpt lat="42.858486" lon="0.623509">
        <ele>1069.6</ele>
        <time>2013-04-25T14:06:31Z</time>
      </trkpt>
      <trkpt lat="42.858596" lon="0.623513">
        <ele>1069.1</ele>
        <time>2013-04-25T14:06:36Z</time>
      </trkpt>
      <trkpt lat="42.858658" lon="0.623588">
        <ele>1068.2</ele>
        <time>2013-04-25T14:06:41Z</time>
      </trkpt>
      <trkpt lat="42.858655" lon="0.623717">
        <ele>1067.7</ele>
        <time>2013-04-25T14:06:49Z</time>
      </trkpt>
      <trkpt lat="42.858670" lon="0.623878">
        <ele>1065.3</ele>
        <time>2013-04-25T14:06:59Z</time>
      </trkpt>
      <trkpt lat="42.858707" lon="0.624001">
        <ele>1062.9</ele>
        <time>2013-04-25T14:07:05Z</time>
      </trkpt>
      <trkpt lat="42.858767" lon="0.624146">
        <ele>1060.5</ele>
        <time>2013-04-25T14:07:16Z</time>
      </trkpt>
      <trkpt lat="42.858823" lon="0.624247">
        <ele>1057.6</ele>
        <time>2013-04-25T14:07:26Z</time>
      </trkpt>
      <trkpt lat="42.858965" lon="0.624298">
        <ele>1053.7</ele>
        <time>2013-04-25T14:07:39Z</time>
      </trkpt>
      <trkpt lat="42.859072" lon="0.624266">
        <ele>1051.8</ele>
        <time>2013-04-25T14:07:46Z</time>
      </trkpt>
      <trkpt lat="42.859036" lon="0.624117">
        <ele>1048.9</ele>
        <time>2013-04-25T14:07:56Z</time>
      </trkpt>
      <trkpt lat="42.859011" lon="0.623885">
        <ele>1045.6</ele>
        <time>2013-04-25T14:08:11Z</time>
      </trkpt>
      <trkpt lat="42.859001" lon="0.623696">
        <ele>1043.2</ele>
        <time>2013-04-25T14:08:22Z</time>
      </trkpt>
      <trkpt lat="42.858997" lon="0.623498">
        <ele>1041.7</ele>
        <time>2013-04-25T14:08:34Z</time>
      </trkpt>
      <trkpt lat="42.859000" lon="0.623284">
        <ele>1038.4</ele>
        <time>2013-04-25T14:08:45Z</time>
      </trkpt>
      <trkpt lat="42.858975" lon="0.623068">
        <ele>1036.0</ele>
        <time>2013-04-25T14:08:56Z</time>
      </trkpt>
      <trkpt lat="42.858959" lon="0.622865">
        <ele>1033.6</ele>
        <time>2013-04-25T14:09:05Z</time>
      </trkpt>
      <trkpt lat="42.858951" lon="0.622670">
        <ele>1031.2</ele>
        <time>2013-04-25T14:09:15Z</time>
      </trkpt>
      <trkpt lat="42.859046" lon="0.622703">
        <ele>1028.3</ele>
        <time>2013-04-25T14:09:25Z</time>
      </trkpt>
      <trkpt lat="42.859114" lon="0.622829">
        <ele>1025.9</ele>
        <time>2013-04-25T14:09:34Z</time>
      </trkpt>
      <trkpt lat="42.859176" lon="0.622693">
        <ele>1023.0</ele>
        <time>2013-04-25T14:09:45Z</time>
      </trkpt>
      <trkpt lat="42.859206" lon="0.622529">
        <ele>1020.1</ele>
        <time>2013-04-25T14:09:55Z</time>
      </trkpt>
      <trkpt lat="42.859253" lon="0.622348">
        <ele>1017.2</ele>
        <time>2013-04-25T14:10:05Z</time>
      </trkpt>
      <trkpt lat="42.859276" lon="0.622197">
        <ele>1016.2</ele>
        <time>2013-04-25T14:10:12Z</time>
      </trkpt>
      <trkpt lat="42.859324" lon="0.622083">
        <ele>1014.3</ele>
        <time>2013-04-25T14:10:21Z</time>
      </trkpt>
      <trkpt lat="42.859354" lon="0.621927">
        <ele>1012.4</ele>
        <time>2013-04-25T14:10:28Z</time>
      </trkpt>
      <trkpt lat="42.859362" lon="0.621799">
        <ele>1012.4</ele>
        <time>2013-04-25T14:10:32Z</time>
      </trkpt>
      <trkpt lat="42.859362" lon="0.621702">
        <ele>1011.4</ele>
        <time>2013-04-25T14:10:38Z</time>
      </trkpt>
      <trkpt lat="42.859377" lon="0.621583">
        <ele>1008.6</ele>
        <time>2013-04-25T14:10:46Z</time>
      </trkpt>
      <trkpt lat="42.859458" lon="0.621505">
        <ele>1007.1</ele>
        <time>2013-04-25T14:10:51Z</time>
      </trkpt>
      <trkpt lat="42.859455" lon="0.621430">
        <ele>1006.6</ele>
        <time>2013-04-25T14:10:57Z</time>
      </trkpt>
      <trkpt lat="42.859359" lon="0.621362">
        <ele>1004.2</ele>
        <time>2013-04-25T14:11:07Z</time>
      </trkpt>
      <trkpt lat="42.859304" lon="0.621238">
        <ele>1001.8</ele>
        <time>2013-04-25T14:11:19Z</time>
      </trkpt>
      <trkpt lat="42.859303" lon="0.621103">
        <ele>998.5</ele>
        <time>2013-04-25T14:11:31Z</time>
      </trkpt>
      <trkpt lat="42.859365" lon="0.621008">
        <ele>995.1</ele>
        <time>2013-04-25T14:11:41Z</time>
      </trkpt>
      <trkpt lat="42.859383" lon="0.620871">
        <ele>993.2</ele>
        <time>2013-04-25T14:11:49Z</time>
      </trkpt>
      <trkpt lat="42.859337" lon="0.620768">
        <ele>991.7</ele>
        <time>2013-04-25T14:11:56Z</time>
      </trkpt>
      <trkpt lat="42.859255" lon="0.620730">
        <ele>989.8</ele>
        <time>2013-04-25T14:12:04Z</time>
      </trkpt>
      <trkpt lat="42.859184" lon="0.620766">
        <ele>986.9</ele>
        <time>2013-04-25T14:12:35Z</time>
      </trkpt>
      <trkpt lat="42.859073" lon="0.620725">
        <ele>985.5</ele>
        <time>2013-04-25T14:12:44Z</time>
      </trkpt>
      <trkpt lat="42.858984" lon="0.620692">
        <ele>982.6</ele>
        <time>2013-04-25T14:12:52Z</time>
      </trkpt>
      <trkpt lat="42.858897" lon="0.620679">
        <ele>980.7</ele>
        <time>2013-04-25T14:12:58Z</time>
      </trkpt>
      <trkpt lat="42.858812" lon="0.620720">
        <ele>978.8</ele>
        <time>2013-04-25T14:13:03Z</time>
      </trkpt>
      <trkpt lat="42.858749" lon="0.620807">
        <ele>976.4</ele>
        <time>2013-04-25T14:13:13Z</time>
      </trkpt>
      <trkpt lat="42.858659" lon="0.620889">
        <ele>974.9</ele>
        <time>2013-04-25T14:13:20Z</time>
      </trkpt>
      <trkpt lat="42.858566" lon="0.620939">
        <ele>973.0</ele>
        <time>2013-04-25T14:13:26Z</time>
      </trkpt>
      <trkpt lat="42.858460" lon="0.620956">
        <ele>970.6</ele>
        <time>2013-04-25T14:13:36Z</time>
      </trkpt>
      <trkpt lat="42.858323" lon="0.620943">
        <ele>969.2</ele>
        <time>2013-04-25T14:13:46Z</time>
      </trkpt>
      <trkpt lat="42.858202" lon="0.620917">
        <ele>967.2</ele>
        <time>2013-04-25T14:13:54Z</time>
      </trkpt>
      <trkpt lat="42.858116" lon="0.620827">
        <ele>965.8</ele>
        <time>2013-04-25T14:14:01Z</time>
      </trkpt>
      <trkpt lat="42.858027" lon="0.620770">
        <ele>964.3</ele>
        <time>2013-04-25T14:14:08Z</time>
      </trkpt>
      <trkpt lat="42.857946" lon="0.620696">
        <ele>964.3</ele>
        <time>2013-04-25T14:14:15Z</time>
      </trkpt>
      <trkpt lat="42.857862" lon="0.620619">
        <ele>961.5</ele>
        <time>2013-04-25T14:14:22Z</time>
      </trkpt>
      <trkpt lat="42.857768" lon="0.620566">
        <ele>960.0</ele>
        <time>2013-04-25T14:14:30Z</time>
      </trkpt>
      <trkpt lat="42.857673" lon="0.620521">
        <ele>958.1</ele>
        <time>2013-04-25T14:14:37Z</time>
      </trkpt>
      <trkpt lat="42.857583" lon="0.620476">
        <ele>957.1</ele>
        <time>2013-04-25T14:14:45Z</time>
      </trkpt>
      <trkpt lat="42.857485" lon="0.620422">
        <ele>955.2</ele>
        <time>2013-04-25T14:14:53Z</time>
      </trkpt>
      <trkpt lat="42.857375" lon="0.620379">
        <ele>952.3</ele>
        <time>2013-04-25T14:15:01Z</time>
      </trkpt>
      <trkpt lat="42.857290" lon="0.620304">
        <ele>950.9</ele>
        <time>2013-04-25T14:15:09Z</time>
      </trkpt>
      <trkpt lat="42.857191" lon="0.620252">
        <ele>949.9</ele>
        <time>2013-04-25T14:15:17Z</time>
      </trkpt>
      <trkpt lat="42.857098" lon="0.620189">
        <ele>947.0</ele>
        <time>2013-04-25T14:15:26Z</time>
      </trkpt>
      <trkpt lat="42.857011" lon="0.620082">
        <ele>945.6</ele>
        <time>2013-04-25T14:16:04Z</time>
      </trkpt>
      <trkpt lat="42.856922" lon="0.620066">
        <ele>944.2</ele>
        <time>2013-04-25T14:16:09Z</time>
      </trkpt>
      <trkpt lat="42.856836" lon="0.620082">
        <ele>943.7</ele>
        <time>2013-04-25T14:16:17Z</time>
      </trkpt>
      <trkpt lat="42.856719" lon="0.620099">
        <ele>936.5</ele>
        <time>2013-04-25T14:16:25Z</time>
      </trkpt>
      <trkpt lat="42.856643" lon="0.620142">
        <ele>942.2</ele>
        <time>2013-04-25T14:16:37Z</time>
      </trkpt>
      <trkpt lat="42.856528" lon="0.620101">
        <ele>940.8</ele>
        <time>2013-04-25T14:17:03Z</time>
      </trkpt>
      <trkpt lat="42.856427" lon="0.620160">
        <ele>940.3</ele>
        <time>2013-04-25T14:17:12Z</time>
      </trkpt>
      <trkpt lat="42.856330" lon="0.620208">
        <ele>938.9</ele>
        <time>2013-04-25T14:17:22Z</time>
      </trkpt>
      <trkpt lat="42.856238" lon="0.620293">
        <ele>938.3</ele>
        <time>2013-04-25T14:17:34Z</time>
      </trkpt>
      <trkpt lat="42.856103" lon="0.620345">
        <ele>937.9</ele>
        <time>2013-04-25T14:17:44Z</time>
      </trkpt>
    </trkseg>
  </trk>
</gpx>

